Observation data for Endee on 05/24/2020      Previous  Date  Next       Current Mesonet Observations  Soil Data  Daily Summary Page  Observations in Plain Language
KEN1 240500Z 15013KT 20/11 A2979 RMK A01 T01960113  RH  058%=      5-min Rain = 0
KEN1 240501Z 16017KT 20/11 A2979 RMK A01 T01960112  RH  059%=      5-min Rain = 0
KEN1 240502Z 16021KT 20/11 A2979 RMK A01 T01950113  RH  059%=      5-min Rain = 0
KEN1 240503Z 16019KT 20/12 A2979 RMK A01 T01970115  RH  059%=      5-min Rain = 0
KEN1 240504Z 16016KT 20/11 A2979 RMK A01 T01970114  RH  059%=      5-min Rain = 0
KEN1 240505Z 16017KT 20/12 A2979 RMK A01 T01970115  RH  059%=      5-min Rain = 0
KEN1 240506Z 16017KT 20/11 A2979 RMK A01 T01960114  RH  059%=      5-min Rain = 0
KEN1 240507Z 16015KT 20/11 A298 RMK A01 T01960114  RH  059%=      5-min Rain = 0
KEN1 240508Z 15015KT 20/11 A298 RMK A01 T01950114  RH  059%=      5-min Rain = 0
KEN1 240509Z 16015KT 20/11 A298 RMK A01 T01950114  RH  059%=      5-min Rain = 0
KEN1 240510Z 15014KT 20/11 A298 RMK A01 T01950114  RH  059%=      5-min Rain = 0
KEN1 240511Z 16013KT 20/11 A298 RMK A01 T01950114  RH  060%=      5-min Rain = 0
KEN1 240512Z 15014KT 19/11 A298 RMK A01 T01940114  RH  060%=      5-min Rain = 0
KEN1 240513Z 15015KT 19/11 A298 RMK A01 T01930113  RH  060%=      5-min Rain = 0
KEN1 240514Z 15016KT 19/11 A298 RMK A01 T01930113  RH  060%=      5-min Rain = 0
KEN1 240515Z 14015KT 19/11 A2979 RMK A01 T01920113  RH  060%=      5-min Rain = 0
KEN1 240516Z 14014KT 19/11 A298 RMK A01 T01920113  RH  060%=      5-min Rain = 0
KEN1 240517Z 14015KT 19/11 A2979 RMK A01 T01910112  RH  060%=      5-min Rain = 0
KEN1 240518Z 14015KT 19/11 A2979 RMK A01 T01900112  RH  060%=      5-min Rain = 0
KEN1 240519Z 13015KT 19/11 A298 RMK A01 T01900112  RH  061%=      5-min Rain = 0
KEN1 240520Z 13013KT 19/11 A298 RMK A01 T01900112  RH  060%=      5-min Rain = 0
KEN1 240521Z 13014KT 19/11 A298 RMK A01 T01890110  RH  060%=      5-min Rain = 0
KEN1 240522Z 13012KT 19/11 A298 RMK A01 T01870110  RH  061%=      5-min Rain = 0
KEN1 240523Z 15011KT 19/11 A298 RMK A01 T01860110  RH  061%=      5-min Rain = 0
KEN1 240524Z 15011KT 19/11 A298 RMK A01 T01860110  RH  061%=      5-min Rain = 0
KEN1 240525Z 14012KT 19/11 A298 RMK A01 T01860110  RH  061%=      5-min Rain = 0
KEN1 240526Z 14015KT 19/11 A298 RMK A01 T01860110  RH  062%=      5-min Rain = 0
KEN1 240527Z 14016KT 19/11 A298 RMK A01 T01860111  RH  062%=      5-min Rain = 0
KEN1 240528Z 14018KT 19/11 A298 RMK A01 T01860111  RH  062%=      5-min Rain = 0
KEN1 240529Z 15016KT 19/11 A298 RMK A01 T01870111  RH  061%=      5-min Rain = 0
KEN1 240530Z 14017KT 19/11 A298 RMK A01 T01870111  RH  061%=      5-min Rain = 0
KEN1 240531Z 15016KT 19/11 A298 RMK A01 T01880111  RH  061%=      5-min Rain = 0
KEN1 240532Z 15017KT 19/11 A298 RMK A01 T01880111  RH  061%=      5-min Rain = 0
KEN1 240533Z 15016KT 19/11 A298 RMK A01 T01880111  RH  061%=      5-min Rain = 0
KEN1 240534Z 15014KT 19/11 A298 RMK A01 T01880112  RH  061%=      5-min Rain = 0
KEN1 240535Z 15015KT 19/11 A298 RMK A01 T01880112  RH  061%=      5-min Rain = 0
KEN1 240536Z 15013KT 19/11 A298 RMK A01 T01880112  RH  061%=      5-min Rain = 0
KEN1 240537Z 15014KT 19/11 A298 RMK A01 T01880112  RH  061%=      5-min Rain = 0
KEN1 240538Z 15015KT 19/11 A2979 RMK A01 T01870112  RH  062%=      5-min Rain = 0
KEN1 240539Z 15015KT 19/11 A2979 RMK A01 T01880112  RH  061%=      5-min Rain = 0
KEN1 240540Z 16017G22KT 19/11 A2979 RMK A01 T01880112  RH  061%=      5-min Rain = 0
KEN1 240541Z 16020KT 19/11 A2979 RMK A01 T01890112  RH  061%=      5-min Rain = 0
KEN1 240542Z 16019KT 19/11 A2979 RMK A01 T01910112  RH  060%=      5-min Rain = 0
KEN1 240543Z 16020KT 19/11 A298 RMK A01 T01920112  RH  060%=      5-min Rain = 0
KEN1 240544Z 16020G26KT 19/11 A298 RMK A01 T01930112  RH  059%=      5-min Rain = 0
KEN1 240545Z 15017KT 19/11 A298 RMK A01 T01930112  RH  059%=      5-min Rain = 0
KEN1 240546Z 15018KT 19/11 A298 RMK A01 T01930112  RH  060%=      5-min Rain = 0
KEN1 240547Z 15017KT 19/11 A298 RMK A01 T01920112  RH  060%=      5-min Rain = 0
KEN1 240548Z 15015KT 19/11 A298 RMK A01 T01910112  RH  060%=      5-min Rain = 0
KEN1 240549Z 15018KT 19/11 A298 RMK A01 T01900111  RH  060%=      5-min Rain = 0
KEN1 240550Z 15016KT 19/11 A298 RMK A01 T01900111  RH  060%=      5-min Rain = 0
KEN1 240551Z 15015KT 19/11 A298 RMK A01 T01900111  RH  060%=      5-min Rain = 0
KEN1 240552Z 15017KT 19/11 A298 RMK A01 T01890111  RH  061%=      5-min Rain = 0
KEN1 240553Z 15016KT 19/11 A298 RMK A01 T01880111  RH  061%=      5-min Rain = 0
KEN1 240554Z 15015KT 19/11 A298 RMK A01 T01880111  RH  061%=      5-min Rain = 0
KEN1 240555Z 14014KT 19/11 A298 RMK A01 T01870111  RH  061%=      5-min Rain = 0
KEN1 240556Z 14013KT 19/11 A298 RMK A01 T01860110  RH  061%=      5-min Rain = 0
KEN1 240557Z 15013KT 19/11 A298 RMK A01 T01850110  RH  061%=      5-min Rain = 0
KEN1 240558Z 15015KT 19/11 A298 RMK A01 T01850110  RH  062%=      5-min Rain = 0
KEN1 240559Z 14013KT 19/11 A298 RMK A01 T01850110  RH  062%=      5-min Rain = 0
KEN1 240600Z 14014KT 18/11 A298 RMK A01 T01840109  RH  062%=      5-min Rain = 0
KEN1 240601Z 15011KT 18/11 A298 RMK A01 T01840110  RH  062%=      5-min Rain = 0
KEN1 240602Z 14012KT 18/11 A298 RMK A01 T01830109  RH  062%=      5-min Rain = 0
KEN1 240603Z 15013KT 18/11 A298 RMK A01 T01820109  RH  062%=      5-min Rain = 0
KEN1 240604Z 15012KT 18/11 A298 RMK A01 T01820109  RH  062%=      5-min Rain = 0
KEN1 240605Z 15012KT 18/11 A298 RMK A01 T01820110  RH  062%=      5-min Rain = 0
KEN1 240606Z 15013KT 18/11 A298 RMK A01 T01820109  RH  062%=      5-min Rain = 0
KEN1 240607Z 15012KT 18/11 A298 RMK A01 T01830109  RH  062%=      5-min Rain = 0
KEN1 240608Z 15011KT 18/11 A298 RMK A01 T01830110  RH  062%=      5-min Rain = 0
KEN1 240609Z 15012KT 18/11 A298 RMK A01 T01830109  RH  062%=      5-min Rain = 0
KEN1 240610Z 15013KT 18/11 A298 RMK A01 T01830109  RH  062%=      5-min Rain = 0
KEN1 240611Z 15013KT 18/11 A298 RMK A01 T01840109  RH  062%=      5-min Rain = 0
KEN1 240612Z 16013KT 19/11 A298 RMK A01 T01850109  RH  061%=      5-min Rain = 0
KEN1 240613Z 15014KT 19/11 A298 RMK A01 T01860109  RH  061%=      5-min Rain = 0
KEN1 240614Z 16014KT 19/11 A298 RMK A01 T01860109  RH  060%=      5-min Rain = 0
KEN1 240615Z 15015KT 19/11 A298 RMK A01 T01870109  RH  060%=      5-min Rain = 0
KEN1 240616Z 15015KT 19/11 A298 RMK A01 T01880109  RH  060%=      5-min Rain = 0
KEN1 240617Z 15015KT 19/11 A298 RMK A01 T01880109  RH  060%=      5-min Rain = 0
KEN1 240618Z 15015KT 19/11 A298 RMK A01 T01880108  RH  060%=      5-min Rain = 0
KEN1 240619Z 16013KT 19/11 A298 RMK A01 T01890108  RH  059%=      5-min Rain = 0
KEN1 240620Z 15015KT 19/11 A2979 RMK A01 T01880108  RH  060%=      5-min Rain = 0
KEN1 240621Z 16015KT 19/11 A298 RMK A01 T01880108  RH  060%=      5-min Rain = 0
KEN1 240622Z 15015KT 19/11 A2979 RMK A01 T01890108  RH  059%=      5-min Rain = 0
KEN1 240623Z 15016G21KT 19/11 A2979 RMK A01 T01890108  RH  059%=      5-min Rain = 0
KEN1 240624Z 15017KT 19/11 A2979 RMK A01 T01890108  RH  059%=      5-min Rain = 0
KEN1 240625Z 15016KT 19/11 A2979 RMK A01 T01890108  RH  059%=      5-min Rain = 0
KEN1 240626Z 16017G22KT 19/11 A2979 RMK A01 T01890108  RH  059%=      5-min Rain = 0
KEN1 240627Z 16018KT 19/11 A2979 RMK A01 T01890107  RH  059%=      5-min Rain = 0
KEN1 240628Z 15016KT 19/11 A2979 RMK A01 T01890107  RH  059%=      5-min Rain = 0
KEN1 240629Z 16019KT 19/11 A2979 RMK A01 T01890107  RH  059%=      5-min Rain = 0
KEN1 240630Z 15019KT 19/11 A2979 RMK A01 T01890107  RH  059%=      5-min Rain = 0
KEN1 240631Z 16018KT 19/11 A2979 RMK A01 T01890108  RH  059%=      5-min Rain = 0
KEN1 240632Z 16016KT 19/11 A2979 RMK A01 T01880107  RH  059%=      5-min Rain = 0
KEN1 240633Z 15017KT 19/11 A2979 RMK A01 T01880107  RH  059%=      5-min Rain = 0
KEN1 240634Z 15019KT 19/11 A2979 RMK A01 T01870107  RH  059%=      5-min Rain = 0
KEN1 240635Z 15017KT 19/11 A2979 RMK A01 T01880107  RH  059%=      5-min Rain = 0
KEN1 240636Z 15018KT 19/11 A2979 RMK A01 T01870107  RH  059%=      5-min Rain = 0
KEN1 240637Z 15016KT 19/11 A2979 RMK A01 T01870107  RH  059%=      5-min Rain = 0
KEN1 240638Z 16019G25KT 19/11 A2979 RMK A01 T01870107  RH  059%=      5-min Rain = 0
KEN1 240639Z 16017KT 19/11 A2979 RMK A01 T01870107  RH  060%=      5-min Rain = 0
KEN1 240640Z 16017KT 19/11 A2979 RMK A01 T01870107  RH  060%=      5-min Rain = 0
KEN1 240641Z 16017KT 19/11 A2979 RMK A01 T01860106  RH  060%=      5-min Rain = 0
KEN1 240642Z 16014KT 19/11 A2979 RMK A01 T01860107  RH  060%=      5-min Rain = 0
KEN1 240643Z 15017KT 19/11 A2979 RMK A01 T01850106  RH  060%=      5-min Rain = 0
KEN1 240644Z 16016KT 19/11 A2979 RMK A01 T01850106  RH  060%=      5-min Rain = 0
KEN1 240645Z 15017KT 19/11 A2979 RMK A01 T01850106  RH  060%=      5-min Rain = 0
KEN1 240646Z 16015KT 19/11 A2979 RMK A01 T01850106  RH  060%=      5-min Rain = 0
KEN1 240647Z 16017KT 18/11 A2979 RMK A01 T01840106  RH  060%=      5-min Rain = 0
KEN1 240648Z 16018KT 19/11 A2979 RMK A01 T01850106  RH  060%=      5-min Rain = 0
KEN1 240649Z 16018KT 19/11 A2979 RMK A01 T01850106  RH  060%=      5-min Rain = 0
KEN1 240650Z 15017KT 19/11 A2979 RMK A01 T01850106  RH  060%=      5-min Rain = 0
KEN1 240651Z 15016KT 19/11 A2979 RMK A01 T01850105  RH  060%=      5-min Rain = 0
KEN1 240652Z 16017KT 18/11 A2979 RMK A01 T01840105  RH  060%=      5-min Rain = 0
KEN1 240653Z 15016KT 18/11 A2978 RMK A01 T01840105  RH  060%=      5-min Rain = 0
KEN1 240654Z 15016KT 18/11 A2978 RMK A01 T01840105  RH  060%=      5-min Rain = 0
KEN1 240655Z 15017KT 18/11 A2978 RMK A01 T01840105  RH  060%=      5-min Rain = 0
KEN1 240656Z 15017KT 18/11 A2978 RMK A01 T01830105  RH  060%=      5-min Rain = 0
KEN1 240657Z 15018KT 18/11 A2978 RMK A01 T01840105  RH  060%=      5-min Rain = 0
KEN1 240658Z 16016KT 18/11 A2978 RMK A01 T01840105  RH  060%=      5-min Rain = 0
KEN1 240659Z 16017KT 18/11 A2978 RMK A01 T01840105  RH  060%=      5-min Rain = 0
KEN1 240700Z 16017KT 18/10 A2978 RMK A01 T01840104  RH  060%=      5-min Rain = 0
KEN1 240701Z 16016KT 18/10 A2978 RMK A01 T01830104  RH  060%=      5-min Rain = 0
KEN1 240702Z 15016KT 18/10 A2978 RMK A01 T01830104  RH  060%=      5-min Rain = 0
KEN1 240703Z 15015KT 18/10 A2978 RMK A01 T01820104  RH  060%=      5-min Rain = 0
KEN1 240704Z 15016KT 18/10 A2978 RMK A01 T01820103  RH  060%=      5-min Rain = 0
KEN1 240705Z 16017KT 18/10 A2978 RMK A01 T01820103  RH  060%=      5-min Rain = 0
KEN1 240706Z 15017KT 18/10 A2978 RMK A01 T01820103  RH  060%=      5-min Rain = 0
KEN1 240707Z 16017G22KT 18/10 A2978 RMK A01 T01820103  RH  060%=      5-min Rain = 0
KEN1 240708Z 15015KT 18/10 A2978 RMK A01 T01820103  RH  060%=      5-min Rain = 0
KEN1 240709Z 16016KT 18/10 A2978 RMK A01 T01820103  RH  060%=      5-min Rain = 0
KEN1 240710Z 16017KT 18/10 A2978 RMK A01 T01810103  RH  060%=      5-min Rain = 0
KEN1 240711Z 16018KT 18/10 A2978 RMK A01 T01820103  RH  060%=      5-min Rain = 0
KEN1 240712Z 16016KT 18/10 A2978 RMK A01 T01810102  RH  060%=      5-min Rain = 0
KEN1 240713Z 16016KT 18/10 A2979 RMK A01 T01810102  RH  060%=      5-min Rain = 0
KEN1 240714Z 16015KT 18/10 A2978 RMK A01 T01810102  RH  060%=      5-min Rain = 0
KEN1 240715Z 15016KT 18/10 A2978 RMK A01 T01800102  RH  060%=      5-min Rain = 0
KEN1 240716Z 15016KT 18/10 A2978 RMK A01 T01800102  RH  060%=      5-min Rain = 0
KEN1 240717Z 15017KT 18/10 A2978 RMK A01 T01800102  RH  060%=      5-min Rain = 0
KEN1 240718Z 15017KT 18/10 A2978 RMK A01 T01800102  RH  060%=      5-min Rain = 0
KEN1 240719Z 15017KT 18/10 A2978 RMK A01 T01800102  RH  060%=      5-min Rain = 0
KEN1 240720Z 15016KT 18/10 A2978 RMK A01 T01800101  RH  060%=      5-min Rain = 0
KEN1 240721Z 15017KT 18/10 A2978 RMK A01 T01790101  RH  060%=      5-min Rain = 0
KEN1 240722Z 15018KT 18/10 A2978 RMK A01 T01790101  RH  060%=      5-min Rain = 0
KEN1 240723Z 16016KT 18/10 A2978 RMK A01 T01800101  RH  060%=      5-min Rain = 0
KEN1 240724Z 15018KT 18/10 A2978 RMK A01 T01800101  RH  060%=      5-min Rain = 0
KEN1 240725Z 16017KT 18/10 A2978 RMK A01 T01800101  RH  060%=      5-min Rain = 0
KEN1 240726Z 15016G21KT 18/10 A2978 RMK A01 T01800100  RH  060%=      5-min Rain = 0
KEN1 240727Z 15016KT 18/10 A2978 RMK A01 T01800100  RH  060%=      5-min Rain = 0
KEN1 240728Z 15017KT 18/10 A2978 RMK A01 T01790101  RH  060%=      5-min Rain = 0
KEN1 240729Z 15016KT 18/10 A2978 RMK A01 T01790100  RH  060%=      5-min Rain = 0
KEN1 240730Z 15017KT 18/10 A2978 RMK A01 T01790100  RH  060%=      5-min Rain = 0
KEN1 240731Z 15018KT 18/10 A2978 RMK A01 T01790100  RH  060%=      5-min Rain = 0
KEN1 240732Z 15017KT 18/10 A2978 RMK A01 T01790100  RH  060%=      5-min Rain = 0
KEN1 240733Z 15017KT 18/10 A2978 RMK A01 T01800100  RH  060%=      5-min Rain = 0
KEN1 240734Z 15017KT 18/10 A2978 RMK A01 T01790100  RH  060%=      5-min Rain = 0
KEN1 240735Z 15016KT 18/10 A2978 RMK A01 T01790100  RH  060%=      5-min Rain = 0
KEN1 240736Z 15016KT 18/10 A2978 RMK A01 T01780100  RH  060%=      5-min Rain = 0
KEN1 240737Z 15016KT 18/10 A2978 RMK A01 T01780099  RH  060%=      5-min Rain = 0
KEN1 240738Z 15016KT 18/10 A2978 RMK A01 T01780099  RH  060%=      5-min Rain = 0
KEN1 240739Z 15016KT 18/10 A2978 RMK A01 T01780099  RH  060%=      5-min Rain = 0
KEN1 240740Z 15016KT 18/10 A2978 RMK A01 T01780099  RH  060%=      5-min Rain = 0
KEN1 240741Z 15016KT 18/10 A2978 RMK A01 T01780099  RH  060%=      5-min Rain = 0
KEN1 240742Z 15015KT 18/10 A2978 RMK A01 T01780099  RH  060%=      5-min Rain = 0
KEN1 240743Z 15014KT 18/10 A2978 RMK A01 T01780099  RH  060%=      5-min Rain = 0
KEN1 240744Z 15014KT 18/10 A2978 RMK A01 T01770099  RH  060%=      5-min Rain = 0
KEN1 240745Z 15016KT 18/10 A2978 RMK A01 T01770099  RH  060%=      5-min Rain = 0
KEN1 240746Z 16015KT 18/10 A2978 RMK A01 T01770099  RH  060%=      5-min Rain = 0
KEN1 240747Z 15014KT 18/10 A2978 RMK A01 T01770099  RH  060%=      5-min Rain = 0
KEN1 240748Z 15015KT 18/10 A2978 RMK A01 T01770099  RH  060%=      5-min Rain = 0
KEN1 240749Z 15014KT 18/10 A2978 RMK A01 T01760098  RH  060%=      5-min Rain = 0
KEN1 240750Z 15016KT 18/10 A2978 RMK A01 T01760099  RH  060%=      5-min Rain = 0
KEN1 240751Z 16015KT 18/10 A2978 RMK A01 T01760099  RH  060%=      5-min Rain = 0
KEN1 240752Z 16013KT 18/10 A2978 RMK A01 T01760099  RH  060%=      5-min Rain = 0
KEN1 240753Z 15016KT 18/10 A2978 RMK A01 T01760099  RH  060%=      5-min Rain = 0
KEN1 240754Z 16015KT 18/10 A2978 RMK A01 T01760099  RH  060%=      5-min Rain = 0
KEN1 240755Z 16015KT 18/10 A2978 RMK A01 T01760099  RH  060%=      5-min Rain = 0
KEN1 240756Z 16016KT 18/10 A2978 RMK A01 T01760099  RH  060%=      5-min Rain = 0
KEN1 240757Z 16015KT 18/10 A2978 RMK A01 T01760098  RH  060%=      5-min Rain = 0
KEN1 240758Z 16016KT 18/10 A2978 RMK A01 T01760098  RH  060%=      5-min Rain = 0
KEN1 240759Z 16015KT 18/10 A2978 RMK A01 T01770099  RH  060%=      5-min Rain = 0
KEN1 240800Z 16017KT 18/10 A2977 RMK A01 T01770099  RH  060%=      5-min Rain = 0
KEN1 240801Z 16017KT 18/10 A2977 RMK A01 T01770099  RH  060%=      5-min Rain = 0
KEN1 240802Z 16018KT 18/10 A2977 RMK A01 T01780099  RH  060%=      5-min Rain = 0
KEN1 240803Z 16016KT 18/10 A2977 RMK A01 T01780100  RH  060%=      5-min Rain = 0
KEN1 240804Z 16019KT 18/10 A2977 RMK A01 T01780100  RH  060%=      5-min Rain = 0
KEN1 240805Z 16018G23KT 18/10 A2977 RMK A01 T01780100  RH  060%=      5-min Rain = 0
KEN1 240806Z 16019KT 18/10 A2977 RMK A01 T01790101  RH  060%=      5-min Rain = 0
KEN1 240807Z 16017KT 18/10 A2977 RMK A01 T01790101  RH  060%=      5-min Rain = 0
KEN1 240808Z 16018KT 18/10 A2977 RMK A01 T01790102  RH  060%=      5-min Rain = 0
KEN1 240809Z 16018KT 18/10 A2977 RMK A01 T01790102  RH  061%=      5-min Rain = 0
KEN1 240810Z 16018KT 18/10 A2978 RMK A01 T01790102  RH  061%=      5-min Rain = 0
KEN1 240811Z 15019G24KT 18/10 A2978 RMK A01 T01790103  RH  061%=      5-min Rain = 0
KEN1 240812Z 16019KT 18/10 A2978 RMK A01 T01790104  RH  061%=      5-min Rain = 0
KEN1 240813Z 16018KT 18/10 A2978 RMK A01 T01790104  RH  061%=      5-min Rain = 0
KEN1 240814Z 15020KT 18/11 A2978 RMK A01 T01800105  RH  061%=      5-min Rain = 0
KEN1 240815Z 16018KT 18/11 A2978 RMK A01 T01790105  RH  062%=      5-min Rain = 0
KEN1 240816Z 16018KT 18/11 A2978 RMK A01 T01790105  RH  062%=      5-min Rain = 0
KEN1 240817Z 16017KT 18/11 A2978 RMK A01 T01800105  RH  062%=      5-min Rain = 0
KEN1 240818Z 16019KT 18/11 A2978 RMK A01 T01800106  RH  062%=      5-min Rain = 0
KEN1 240819Z 16017KT 18/11 A2978 RMK A01 T01800106  RH  062%=      5-min Rain = 0
KEN1 240820Z 16022G27KT 18/11 A2978 RMK A01 T01800106  RH  062%=      5-min Rain = 0
KEN1 240821Z 16019G24KT 18/11 A2978 RMK A01 T01810107  RH  062%=      5-min Rain = 0
KEN1 240822Z 16018KT 18/11 A2978 RMK A01 T01820107  RH  062%=      5-min Rain = 0
KEN1 240823Z 16020KT 18/11 A2978 RMK A01 T01810108  RH  062%=      5-min Rain = 0
KEN1 240824Z 16022KT 18/11 A2978 RMK A01 T01810108  RH  062%=      5-min Rain = 0
KEN1 240825Z 16022KT 18/11 A2978 RMK A01 T01820108  RH  062%=      5-min Rain = 0
KEN1 240826Z 16020KT 18/11 A2978 RMK A01 T01820108  RH  062%=      5-min Rain = 0
KEN1 240827Z 16021KT 18/11 A2978 RMK A01 T01820108  RH  062%=      5-min Rain = 0
KEN1 240828Z 16023G28KT 18/11 A2978 RMK A01 T01820109  RH  062%=      5-min Rain = 0
KEN1 240829Z 16022KT 18/11 A2978 RMK A01 T01820109  RH  062%=      5-min Rain = 0
KEN1 240830Z 16021G27KT 18/11 A2978 RMK A01 T01830109  RH  062%=      5-min Rain = 0
KEN1 240831Z 16019KT 18/11 A2978 RMK A01 T01830110  RH  062%=      5-min Rain = 0
KEN1 240832Z 16021KT 18/11 A2978 RMK A01 T01820110  RH  063%=      5-min Rain = 0
KEN1 240833Z 16021KT 18/11 A2978 RMK A01 T01820110  RH  063%=      5-min Rain = 0
KEN1 240834Z 16023KT 18/11 A2978 RMK A01 T01820110  RH  063%=      5-min Rain = 0
KEN1 240835Z 16022KT 18/11 A2978 RMK A01 T01820111  RH  063%=      5-min Rain = 0
KEN1 240836Z 16020G26KT 18/11 A2978 RMK A01 T01820110  RH  063%=      5-min Rain = 0
KEN1 240837Z 16020KT 18/11 A2978 RMK A01 T01820111  RH  063%=      5-min Rain = 0
KEN1 240838Z 16022KT 18/11 A2978 RMK A01 T01810111  RH  063%=      5-min Rain = 0
KEN1 240839Z 16022KT 18/11 A2978 RMK A01 T01810111  RH  063%=      5-min Rain = 0
KEN1 240840Z 16021KT 18/11 A2978 RMK A01 T01810112  RH  064%=      5-min Rain = 0
KEN1 240841Z 16020KT 18/11 A2978 RMK A01 T01810112  RH  064%=      5-min Rain = 0
KEN1 240842Z 16019KT 18/11 A2978 RMK A01 T01810113  RH  064%=      5-min Rain = 0
KEN1 240843Z 16020G26KT 18/11 A2978 RMK A01 T01810114  RH  065%=      5-min Rain = 0
KEN1 240844Z 17022G28KT 18/12 A2978 RMK A01 T01810115  RH  065%=      5-min Rain = 0
KEN1 240845Z 16020KT 18/12 A2978 RMK A01 T01820115  RH  065%=      5-min Rain = 0
KEN1 240846Z 16020G26KT 18/12 A2978 RMK A01 T01820116  RH  065%=      5-min Rain = 0
KEN1 240847Z 16019KT 18/12 A2978 RMK A01 T01820117  RH  066%=      5-min Rain = 0
KEN1 240848Z 16020G25KT 18/12 A2978 RMK A01 T01820118  RH  066%=      5-min Rain = 0
KEN1 240849Z 17022KT 18/12 A2978 RMK A01 T01820118  RH  066%=      5-min Rain = 0
KEN1 240850Z 16022G27KT 18/12 A2978 RMK A01 T01820118  RH  066%=      5-min Rain = 0
KEN1 240851Z 17021KT 18/12 A2978 RMK A01 T01820118  RH  066%=      5-min Rain = 0
KEN1 240852Z 16023KT 18/12 A2978 RMK A01 T01820119  RH  067%=      5-min Rain = 0
KEN1 240853Z 17020G25KT 18/12 A2978 RMK A01 T01810118  RH  067%=      5-min Rain = 0
KEN1 240854Z 17022KT 18/12 A2978 RMK A01 T01800119  RH  067%=      5-min Rain = 0
KEN1 240855Z 16019KT 18/12 A2978 RMK A01 T01800119  RH  067%=      5-min Rain = 0
KEN1 240856Z 16020KT 18/12 A2978 RMK A01 T01790119  RH  068%=      5-min Rain = 0
KEN1 240857Z 16023G28KT 18/12 A2978 RMK A01 T01780119  RH  068%=      5-min Rain = 0
KEN1 240858Z 17023G28KT 18/12 A2978 RMK A01 T01780120  RH  068%=      5-min Rain = 0
KEN1 240859Z 16022KT 18/12 A2978 RMK A01 T01790120  RH  068%=      5-min Rain = 0
KEN1 240900Z 17021G26KT 18/12 A2978 RMK A01 T01790120  RH  068%=      5-min Rain = 0
KEN1 240901Z 16018G23KT 18/12 A2978 RMK A01 T01780120  RH  069%=      5-min Rain = 0
KEN1 240902Z 16021G27KT 18/12 A2979 RMK A01 T01780121  RH  069%=      5-min Rain = 0
KEN1 240903Z 17022KT 18/12 A2979 RMK A01 T01780121  RH  069%=      5-min Rain = 0
KEN1 240904Z 17018KT 18/12 A2979 RMK A01 T01780121  RH  069%=      5-min Rain = 0
KEN1 240905Z 17020KT 18/12 A2979 RMK A01 T01790122  RH  069%=      5-min Rain = 0
KEN1 240906Z 18017KT 18/12 A298 RMK A01 T01790122  RH  070%=      5-min Rain = 0
KEN1 240907Z 18018KT 18/12 A298 RMK A01 T01790123  RH  070%=      5-min Rain = 0
KEN1 240908Z 17017KT 18/12 A298 RMK A01 T01790123  RH  070%=      5-min Rain = 0
KEN1 240909Z 17021KT 18/12 A298 RMK A01 T01780123  RH  070%=      5-min Rain = 0
KEN1 240910Z 17017KT 18/12 A2979 RMK A01 T01790124  RH  070%=      5-min Rain = 0
KEN1 240911Z 17021G26KT 18/12 A2979 RMK A01 T01790124  RH  070%=      5-min Rain = 0
KEN1 240912Z 16017G22KT 18/13 A2979 RMK A01 T01800125  RH  070%=      5-min Rain = 0
KEN1 240913Z 16018KT 18/13 A298 RMK A01 T01800125  RH  070%=      5-min Rain = 0
KEN1 240914Z 17016G22KT 18/13 A298 RMK A01 T01800126  RH  071%=      5-min Rain = 0
KEN1 240915Z 17015KT 18/13 A2981 RMK A01 T01800126  RH  071%=      5-min Rain = 0
KEN1 240916Z 17015KT 18/13 A2981 RMK A01 T01790126  RH  071%=      5-min Rain = 0
KEN1 240917Z 16017KT 18/13 A2981 RMK A01 T01790126  RH  071%=      5-min Rain = 0
KEN1 240918Z 16016KT 18/13 A2981 RMK A01 T01790127  RH  072%=      5-min Rain = 0
KEN1 240919Z 17020G25KT 18/13 A298 RMK A01 T01790127  RH  072%=      5-min Rain = 0
KEN1 240920Z 16017KT 18/13 A2981 RMK A01 T01780127  RH  072%=      5-min Rain = 0
KEN1 240921Z 16019G24KT 18/13 A298 RMK A01 T01780127  RH  072%=      5-min Rain = 0
KEN1 240922Z 16015KT 18/13 A2981 RMK A01 T01780128  RH  072%=      5-min Rain = 0
KEN1 240923Z 17016G21KT 18/13 A2981 RMK A01 T01780128  RH  072%=      5-min Rain = 0
KEN1 240924Z 17017KT 18/13 A2981 RMK A01 T01780128  RH  073%=      5-min Rain = 0
KEN1 240925Z 17014G19KT 18/13 A2981 RMK A01 T01780128  RH  073%=      5-min Rain = 0
KEN1 240926Z 17013KT 18/13 A2981 RMK A01 T01780128  RH  072%=      5-min Rain = 0
KEN1 240927Z 17016KT 18/13 A2981 RMK A01 T01780128  RH  073%=      5-min Rain = 0
KEN1 240928Z 17016G21KT 18/13 A2981 RMK A01 T01780129  RH  073%=      5-min Rain = 0
KEN1 240929Z 17014G19KT 18/13 A2981 RMK A01 T01780129  RH  073%=      5-min Rain = 0
KEN1 240930Z 17016KT 18/13 A2981 RMK A01 T01780129  RH  073%=      5-min Rain = 0
KEN1 240931Z 17016KT 18/13 A2981 RMK A01 T01780129  RH  073%=      5-min Rain = 0
KEN1 240932Z 17017KT 18/13 A2981 RMK A01 T01790130  RH  073%=      5-min Rain = 0
KEN1 240933Z 17015KT 18/13 A2981 RMK A01 T01790130  RH  073%=      5-min Rain = 0
KEN1 240934Z 16015KT 18/13 A2981 RMK A01 T01790129  RH  073%=      5-min Rain = 0
KEN1 240935Z 16013KT 18/13 A2981 RMK A01 T01780129  RH  073%=      5-min Rain = 0
KEN1 240936Z 16014KT 18/13 A2981 RMK A01 T01770129  RH  073%=      5-min Rain = 0
KEN1 240937Z 16015KT 18/13 A2981 RMK A01 T01770129  RH  074%=      5-min Rain = 0
KEN1 240938Z 16013KT 18/13 A2981 RMK A01 T01760129  RH  074%=      5-min Rain = 0
KEN1 240939Z 16012KT 18/13 A2981 RMK A01 T01760128  RH  074%=      5-min Rain = 0
KEN1 240940Z 16013KT 18/13 A2981 RMK A01 T01750128  RH  074%=      5-min Rain = 0
KEN1 240941Z 16013KT 18/13 A2981 RMK A01 T01750128  RH  074%=      5-min Rain = 0
KEN1 240942Z 16013G18KT 18/13 A2981 RMK A01 T01750128  RH  074%=      5-min Rain = 0
KEN1 240943Z 16013KT 18/13 A2981 RMK A01 T01750128  RH  074%=      5-min Rain = 0
KEN1 240944Z 16012KT 18/13 A2981 RMK A01 T01750128  RH  074%=      5-min Rain = 0
KEN1 240945Z 16013KT 17/13 A2981 RMK A01 T01740128  RH  074%=      5-min Rain = 0
KEN1 240946Z 17015KT 17/13 A2981 RMK A01 T01740128  RH  074%=      5-min Rain = 0
KEN1 240947Z 16013KT 17/13 A2982 RMK A01 T01740128  RH  074%=      5-min Rain = 0
KEN1 240948Z 15010KT 18/13 A2982 RMK A01 T01750128  RH  074%=      5-min Rain = 0
KEN1 240949Z 17013KT 17/13 A2982 RMK A01 T01740128  RH  074%=      5-min Rain = 0
KEN1 240950Z 17015KT 17/13 A2982 RMK A01 T01740128  RH  074%=      5-min Rain = 0
KEN1 240951Z 17014KT 17/13 A2982 RMK A01 T01740128  RH  074%=      5-min Rain = 0
KEN1 240952Z 17014KT 18/13 A2982 RMK A01 T01750129  RH  074%=      5-min Rain = 0
KEN1 240953Z 17020KT 18/13 A2982 RMK A01 T01760129  RH  074%=      5-min Rain = 0
KEN1 240954Z 17017KT 18/13 A2982 RMK A01 T01770129  RH  074%=      5-min Rain = 0
KEN1 240955Z 17014KT 18/13 A2982 RMK A01 T01770129  RH  073%=      5-min Rain = 0
KEN1 240956Z 17015KT 18/13 A2982 RMK A01 T01780129  RH  073%=      5-min Rain = 0
KEN1 240957Z 17015G23KT 18/13 A2982 RMK A01 T01770129  RH  073%=      5-min Rain = 0
KEN1 240958Z 16018KT 18/13 A2982 RMK A01 T01770129  RH  074%=      5-min Rain = 0
KEN1 240959Z 17019KT 18/13 A2982 RMK A01 T01770129  RH  073%=      5-min Rain = 0
KEN1 241000Z 17016KT 18/13 A2982 RMK A01 T01780129  RH  073%=      5-min Rain = 0
KEN1 241001Z 17016KT 18/13 A2982 RMK A01 T01780129  RH  073%=      5-min Rain = 0
KEN1 241002Z 17017KT 18/13 A2982 RMK A01 T01790129  RH  073%=      5-min Rain = 0
KEN1 241003Z 17017KT 18/13 A2982 RMK A01 T01780129  RH  073%=      5-min Rain = 0
KEN1 241004Z 17016KT 18/13 A2982 RMK A01 T01780129  RH  073%=      5-min Rain = 0
KEN1 241005Z 17018KT 18/13 A2982 RMK A01 T01780129  RH  073%=      5-min Rain = 0
KEN1 241006Z 18016KT 18/13 A2982 RMK A01 T01780128  RH  073%=      5-min Rain = 0
KEN1 241007Z 18016KT 18/13 A2982 RMK A01 T01780128  RH  073%=      5-min Rain = 0
KEN1 241008Z 18016KT 18/13 A2982 RMK A01 T01780128  RH  073%=      5-min Rain = 0
KEN1 241009Z 18014G20KT 18/13 A2982 RMK A01 T01780128  RH  073%=      5-min Rain = 0
KEN1 241010Z 18016KT 18/13 A2982 RMK A01 T01780128  RH  073%=      5-min Rain = 0
KEN1 241011Z 18016KT 18/13 A2982 RMK A01 T01770128  RH  073%=      5-min Rain = 0
KEN1 241012Z 18017KT 18/13 A2982 RMK A01 T01770128  RH  073%=      5-min Rain = 0
KEN1 241013Z 19019KT 18/13 A2982 RMK A01 T01770128  RH  073%=      5-min Rain = 0
KEN1 241014Z 19017KT 18/13 A2982 RMK A01 T01780128  RH  072%=      5-min Rain = 0
KEN1 241015Z 18017KT 18/13 A2982 RMK A01 T01780128  RH  072%=      5-min Rain = 0
KEN1 241016Z 19016KT 18/13 A2982 RMK A01 T01780128  RH  072%=      5-min Rain = 0
KEN1 241017Z 19017KT 18/13 A2982 RMK A01 T01770128  RH  073%=      5-min Rain = 0
KEN1 241018Z 19018G23KT 18/13 A2982 RMK A01 T01780128  RH  073%=      5-min Rain = 0
KEN1 241019Z 19018G23KT 18/13 A2982 RMK A01 T01780128  RH  072%=      5-min Rain = 0
KEN1 241020Z 19017KT 18/13 A2982 RMK A01 T01780128  RH  072%=      5-min Rain = 0
KEN1 241021Z 19018KT 18/13 A2981 RMK A01 T01780128  RH  073%=      5-min Rain = 0
KEN1 241022Z 19017KT 18/13 A2981 RMK A01 T01780128  RH  073%=      5-min Rain = 0
KEN1 241023Z 19015KT 18/13 A2982 RMK A01 T01770128  RH  073%=      5-min Rain = 0
KEN1 241024Z 19015KT 18/13 A2981 RMK A01 T01760127  RH  073%=      5-min Rain = 0
KEN1 241025Z 19016KT 18/13 A2981 RMK A01 T01750127  RH  073%=      5-min Rain = 0
KEN1 241026Z 19015G20KT 18/13 A2981 RMK A01 T01750127  RH  073%=      5-min Rain = 0
KEN1 241027Z 19019G24KT 18/13 A2981 RMK A01 T01750127  RH  073%=      5-min Rain = 0
KEN1 241028Z 19019KT 18/13 A2981 RMK A01 T01760127  RH  073%=      5-min Rain = 0
KEN1 241029Z 19018KT 18/13 A2981 RMK A01 T01770127  RH  073%=      5-min Rain = 0
KEN1 241030Z 19016KT 18/13 A2981 RMK A01 T01770127  RH  072%=      5-min Rain = 0
KEN1 241031Z 19017KT 18/13 A2981 RMK A01 T01770127  RH  073%=      5-min Rain = 0
KEN1 241032Z 19019KT 18/13 A2981 RMK A01 T01760127  RH  073%=      5-min Rain = 0
KEN1 241033Z 19018KT 18/13 A2981 RMK A01 T01760126  RH  072%=      5-min Rain = 0
KEN1 241034Z 19017KT 18/13 A2981 RMK A01 T01770127  RH  072%=      5-min Rain = 0
KEN1 241035Z 19015KT 18/13 A2981 RMK A01 T01760126  RH  072%=      5-min Rain = 0
KEN1 241036Z 20017KT 18/13 A2981 RMK A01 T01750126  RH  073%=      5-min Rain = 0
KEN1 241037Z 20014KT 18/13 A2981 RMK A01 T01750126  RH  073%=      5-min Rain = 0
KEN1 241038Z 20015KT 18/13 A2981 RMK A01 T01750126  RH  073%=      5-min Rain = 0
KEN1 241039Z 20016KT 18/13 A2981 RMK A01 T01750125  RH  072%=      5-min Rain = 0
KEN1 241040Z 19017KT 18/13 A2981 RMK A01 T01760125  RH  072%=      5-min Rain = 0
KEN1 241041Z 19017G24KT 18/13 A2981 RMK A01 T01770125  RH  072%=      5-min Rain = 0
KEN1 241042Z 20020KT 18/13 A2981 RMK A01 T01770125  RH  072%=      5-min Rain = 0
KEN1 241043Z 19020G25KT 18/13 A2981 RMK A01 T01770125  RH  072%=      5-min Rain = 0
KEN1 241044Z 19019KT 18/13 A2981 RMK A01 T01780126  RH  072%=      5-min Rain = 0
KEN1 241045Z 19017KT 18/13 A2981 RMK A01 T01780126  RH  072%=      5-min Rain = 0
KEN1 241046Z 19014KT 18/13 A2981 RMK A01 T01770126  RH  072%=      5-min Rain = 0
KEN1 241047Z 19016KT 18/13 A2981 RMK A01 T01750125  RH  073%=      5-min Rain = 0
KEN1 241048Z 19015KT 18/13 A2981 RMK A01 T01750125  RH  073%=      5-min Rain = 0
KEN1 241049Z 19017KT 18/13 A2981 RMK A01 T01750125  RH  072%=      5-min Rain = 0
KEN1 241050Z 19015KT 18/13 A2981 RMK A01 T01750125  RH  072%=      5-min Rain = 0
KEN1 241051Z 19016KT 18/13 A2981 RMK A01 T01750125  RH  072%=      5-min Rain = 0
KEN1 241052Z 19017KT 18/12 A2981 RMK A01 T01750124  RH  072%=      5-min Rain = 0
KEN1 241053Z 19018KT 18/12 A2981 RMK A01 T01750123  RH  072%=      5-min Rain = 0
KEN1 241054Z 19013KT 17/12 A2981 RMK A01 T01740123  RH  072%=      5-min Rain = 0
KEN1 241055Z 19016G21KT 17/12 A2981 RMK A01 T01740123  RH  072%=      5-min Rain = 0
KEN1 241056Z 19017KT 17/12 A2981 RMK A01 T01730122  RH  072%=      5-min Rain = 0
KEN1 241057Z 19015KT 17/12 A2981 RMK A01 T01730121  RH  072%=      5-min Rain = 0
KEN1 241058Z 19014G21KT 17/12 A2981 RMK A01 T01730121  RH  072%=      5-min Rain = 0
KEN1 241059Z 20015KT 17/12 A2981 RMK A01 T01720120  RH  071%=      5-min Rain = 0
KEN1 241100Z 20014KT 17/12 A2981 RMK A01 T01720119  RH  071%=      5-min Rain = 0
KEN1 241101Z 20013KT 17/12 A2981 RMK A01 T01720119  RH  071%=      5-min Rain = 0
KEN1 241102Z 20015KT 17/12 A2981 RMK A01 T01720119  RH  071%=      5-min Rain = 0
KEN1 241103Z 20015KT 17/12 A2981 RMK A01 T01720118  RH  071%=      5-min Rain = 0
KEN1 241104Z 20015KT 17/12 A2981 RMK A01 T01720118  RH  071%=      5-min Rain = 0
KEN1 241105Z 20015KT 17/12 A2981 RMK A01 T01720118  RH  071%=      5-min Rain = 0
KEN1 241106Z 20017KT 17/12 A2981 RMK A01 T01720118  RH  070%=      5-min Rain = 0
KEN1 241107Z 20014KT 17/12 A2981 RMK A01 T01710117  RH  070%=      5-min Rain = 0
KEN1 241108Z 20014KT 17/12 A2981 RMK A01 T01710117  RH  070%=      5-min Rain = 0
KEN1 241109Z 20015KT 17/12 A2981 RMK A01 T01700117  RH  071%=      5-min Rain = 0
KEN1 241110Z 20013KT 17/12 A2981 RMK A01 T01700117  RH  071%=      5-min Rain = 0
KEN1 241111Z 20015KT 17/12 A2981 RMK A01 T01700116  RH  071%=      5-min Rain = 0
KEN1 241112Z 20015G20KT 17/12 A2981 RMK A01 T01700116  RH  070%=      5-min Rain = 0
KEN1 241113Z 20015KT 17/12 A2981 RMK A01 T01700116  RH  070%=      5-min Rain = 0
KEN1 241114Z 20014KT 17/12 A2981 RMK A01 T01700115  RH  070%=      5-min Rain = 0
KEN1 241115Z 21014KT 17/12 A2981 RMK A01 T01690115  RH  070%=      5-min Rain = 0
KEN1 241116Z 20014KT 17/12 A2981 RMK A01 T01690115  RH  070%=      5-min Rain = 0
KEN1 241117Z 20013KT 17/11 A2981 RMK A01 T01690114  RH  070%=      5-min Rain = 0
KEN1 241118Z 20014KT 17/11 A2981 RMK A01 T01680114  RH  070%=      5-min Rain = 0
KEN1 241119Z 20017G22KT 17/11 A2981 RMK A01 T01680113  RH  070%=      5-min Rain = 0
KEN1 241120Z 20017KT 17/11 A2981 RMK A01 T01690113  RH  070%=      5-min Rain = 0
KEN1 241121Z 21018KT 17/11 A2981 RMK A01 T01700113  RH  069%=      5-min Rain = 0
KEN1 241122Z 21017KT 17/11 A2981 RMK A01 T01700113  RH  069%=      5-min Rain = 0
KEN1 241123Z 21014KT 17/11 A2982 RMK A01 T01700113  RH  069%=      5-min Rain = 0
KEN1 241124Z 21017KT 17/11 A2981 RMK A01 T01690112  RH  069%=      5-min Rain = 0
KEN1 241125Z 21019KT 17/11 A2981 RMK A01 T01690112  RH  069%=      5-min Rain = 0
KEN1 241126Z 21016G21KT 17/11 A2981 RMK A01 T01690112  RH  069%=      5-min Rain = 0
KEN1 241127Z 20013KT 17/11 A2982 RMK A01 T01690112  RH  069%=      5-min Rain = 0
KEN1 241128Z 21016KT 17/11 A2982 RMK A01 T01690112  RH  069%=      5-min Rain = 0
KEN1 241129Z 21016KT 17/11 A2982 RMK A01 T01680112  RH  069%=      5-min Rain = 0
KEN1 241130Z 21015KT 17/11 A2982 RMK A01 T01690112  RH  069%=      5-min Rain = 0
KEN1 241131Z 21015KT 17/11 A2982 RMK A01 T01680111  RH  069%=      5-min Rain = 0
KEN1 241132Z 21016KT 17/11 A2982 RMK A01 T01680111  RH  069%=      5-min Rain = 0
KEN1 241133Z 21013KT 17/11 A2982 RMK A01 T01680111  RH  069%=      5-min Rain = 0
KEN1 241134Z 21012G17KT 17/11 A2982 RMK A01 T01670111  RH  069%=      5-min Rain = 0
KEN1 241135Z 21015KT 17/11 A2982 RMK A01 T01670111  RH  070%=      5-min Rain = 0
KEN1 241136Z 21014KT 17/11 A2982 RMK A01 T01670111  RH  070%=      5-min Rain = 0
KEN1 241137Z 21017KT 17/11 A2982 RMK A01 T01670111  RH  069%=      5-min Rain = 0
KEN1 241138Z 21017KT 17/11 A2982 RMK A01 T01680111  RH  069%=      5-min Rain = 0
KEN1 241139Z 21016G21KT 17/11 A2982 RMK A01 T01680111  RH  069%=      5-min Rain = 0
KEN1 241140Z 21017KT 17/11 A2982 RMK A01 T01680111  RH  069%=      5-min Rain = 0
KEN1 241141Z 21017KT 17/11 A2982 RMK A01 T01680111  RH  069%=      5-min Rain = 0
KEN1 241142Z 21020KT 17/11 A2982 RMK A01 T01680111  RH  069%=      5-min Rain = 0
KEN1 241143Z 21016KT 17/11 A2982 RMK A01 T01690112  RH  069%=      5-min Rain = 0
KEN1 241144Z 21016KT 17/11 A2982 RMK A01 T01690112  RH  069%=      5-min Rain = 0
KEN1 241145Z 21018KT 17/11 A2982 RMK A01 T01680112  RH  070%=      5-min Rain = 0
KEN1 241146Z 21016KT 17/11 A2982 RMK A01 T01680113  RH  070%=      5-min Rain = 0
KEN1 241147Z 21018G23KT 17/11 A2982 RMK A01 T01680113  RH  070%=      5-min Rain = 0
KEN1 241148Z 21017KT 17/11 A2982 RMK A01 T01680113  RH  070%=      5-min Rain = 0
KEN1 241149Z 21017KT 17/11 A2982 RMK A01 T01690114  RH  070%=      5-min Rain = 0
KEN1 241150Z 21016KT 17/11 A2982 RMK A01 T01690114  RH  070%=      5-min Rain = 0
KEN1 241151Z 21015KT 17/11 A2982 RMK A01 T01680114  RH  070%=      5-min Rain = 0
KEN1 241152Z 21014KT 17/11 A2982 RMK A01 T01670114  RH  071%=      5-min Rain = 0
KEN1 241153Z 21016KT 17/11 A2982 RMK A01 T01670114  RH  071%=      5-min Rain = 0
KEN1 241154Z 21014G21KT 17/11 A2982 RMK A01 T01670114  RH  071%=      5-min Rain = 0
KEN1 241155Z 21018KT 17/11 A2982 RMK A01 T01670114  RH  071%=      5-min Rain = 0
KEN1 241156Z 21017KT 17/12 A2982 RMK A01 T01680115  RH  071%=      5-min Rain = 0
KEN1 241157Z 21017KT 17/12 A2982 RMK A01 T01680115  RH  071%=      5-min Rain = 0
KEN1 241158Z 21017KT 17/11 A2982 RMK A01 T01680114  RH  070%=      5-min Rain = 0
KEN1 241159Z 21016KT 17/11 A2983 RMK A01 T01680114  RH  070%=      5-min Rain = 0
KEN1 241200Z 21015KT 17/11 A2982 RMK A01 T01680114  RH  070%=      5-min Rain = 0
KEN1 241201Z 21013KT 17/11 A2983 RMK A01 T01680114  RH  070%=      5-min Rain = 0
KEN1 241202Z 21014KT 17/11 A2983 RMK A01 T01680113  RH  070%=      5-min Rain = 0
KEN1 241203Z 22012KT 17/11 A2983 RMK A01 T01670113  RH  070%=      5-min Rain = 0
KEN1 241204Z 21013KT 17/11 A2983 RMK A01 T01670113  RH  070%=      5-min Rain = 0
KEN1 241205Z 21013KT 17/11 A2983 RMK A01 T01670113  RH  070%=      5-min Rain = 0
KEN1 241206Z 21015G20KT 17/11 A2983 RMK A01 T01680113  RH  070%=      5-min Rain = 0
KEN1 241207Z 21013KT 17/11 A2983 RMK A01 T01680113  RH  070%=      5-min Rain = 0
KEN1 241208Z 21015KT 17/11 A2983 RMK A01 T01680113  RH  070%=      5-min Rain = 0
KEN1 241209Z 21016KT 17/11 A2983 RMK A01 T01680113  RH  070%=      5-min Rain = 0
KEN1 241210Z 21016G21KT 17/11 A2983 RMK A01 T01690113  RH  070%=      5-min Rain = 0
KEN1 241211Z 21018KT 17/11 A2983 RMK A01 T01690113  RH  070%=      5-min Rain = 0
KEN1 241212Z 21018KT 17/11 A2983 RMK A01 T01700114  RH  069%=      5-min Rain = 0
KEN1 241213Z 21015KT 17/11 A2983 RMK A01 T01710114  RH  069%=      5-min Rain = 0
KEN1 241214Z 21019KT 17/11 A2983 RMK A01 T01700114  RH  069%=      5-min Rain = 0
KEN1 241215Z 21016G21KT 17/11 A2983 RMK A01 T01700114  RH  069%=      5-min Rain = 0
KEN1 241216Z 21017KT 17/11 A2983 RMK A01 T01700113  RH  069%=      5-min Rain = 0
KEN1 241217Z 21016KT 17/11 A2983 RMK A01 T01700114  RH  069%=      5-min Rain = 0
KEN1 241218Z 21018KT 17/11 A2983 RMK A01 T01700114  RH  069%=      5-min Rain = 0
KEN1 241219Z 21015KT 17/11 A2983 RMK A01 T01710114  RH  069%=      5-min Rain = 0
KEN1 241220Z 21017KT 17/11 A2983 RMK A01 T01710114  RH  069%=      5-min Rain = 0
KEN1 241221Z 21017KT 17/11 A2983 RMK A01 T01710114  RH  069%=      5-min Rain = 0
KEN1 241222Z 21015G20KT 17/11 A2984 RMK A01 T01710114  RH  069%=      5-min Rain = 0
KEN1 241223Z 21014G19KT 17/11 A2984 RMK A01 T01710114  RH  069%=      5-min Rain = 0
KEN1 241224Z 21015KT 17/11 A2984 RMK A01 T01710114  RH  069%=      5-min Rain = 0
KEN1 241225Z 21016KT 17/11 A2984 RMK A01 T01710114  RH  069%=      5-min Rain = 0
KEN1 241226Z 21015KT 17/11 A2984 RMK A01 T01710114  RH  069%=      5-min Rain = 0
KEN1 241227Z 21016KT 17/11 A2984 RMK A01 T01710114  RH  069%=      5-min Rain = 0
KEN1 241228Z 21015KT 17/11 A2984 RMK A01 T01720114  RH  069%=      5-min Rain = 0
KEN1 241229Z 21014G19KT 17/11 A2984 RMK A01 T01720114  RH  069%=      5-min Rain = 0
KEN1 241230Z 21014KT 17/11 A2984 RMK A01 T01720114  RH  069%=      5-min Rain = 0
KEN1 241231Z 22012KT 17/11 A2984 RMK A01 T01720114  RH  068%=      5-min Rain = 0
KEN1 241232Z 21014KT 17/11 A2984 RMK A01 T01720114  RH  068%=      5-min Rain = 0
KEN1 241233Z 22014KT 17/11 A2984 RMK A01 T01720113  RH  068%=      5-min Rain = 0
KEN1 241234Z 22015KT 17/11 A2984 RMK A01 T01730114  RH  068%=      5-min Rain = 0
KEN1 241235Z 21015G21KT 17/11 A2984 RMK A01 T01730114  RH  068%=      5-min Rain = 0
KEN1 241236Z 21014KT 17/11 A2984 RMK A01 T01730114  RH  068%=      5-min Rain = 0
KEN1 241237Z 21015KT 17/11 A2984 RMK A01 T01740114  RH  068%=      5-min Rain = 0
KEN1 241238Z 21018KT 17/11 A2984 RMK A01 T01740113  RH  068%=      5-min Rain = 0
KEN1 241239Z 21016KT 17/11 A2984 RMK A01 T01740114  RH  068%=      5-min Rain = 0
KEN1 241240Z 21016G21KT 17/11 A2984 RMK A01 T01740114  RH  067%=      5-min Rain = 0
KEN1 241241Z 21015G21KT 17/11 A2984 RMK A01 T01740114  RH  067%=      5-min Rain = 0
KEN1 241242Z 21017KT 18/11 A2984 RMK A01 T01750114  RH  067%=      5-min Rain = 0
KEN1 241243Z 21016KT 18/11 A2984 RMK A01 T01750114  RH  067%=      5-min Rain = 0
KEN1 241244Z 21017KT 18/11 A2984 RMK A01 T01750114  RH  067%=      5-min Rain = 0
KEN1 241245Z 21015KT 18/11 A2984 RMK A01 T01750113  RH  067%=      5-min Rain = 0
KEN1 241246Z 21017KT 18/11 A2984 RMK A01 T01760114  RH  067%=      5-min Rain = 0
KEN1 241247Z 22015KT 18/11 A2984 RMK A01 T01760113  RH  067%=      5-min Rain = 0
KEN1 241248Z 21014KT 18/11 A2984 RMK A01 T01760113  RH  067%=      5-min Rain = 0
KEN1 241249Z 21015KT 18/11 A2984 RMK A01 T01760113  RH  067%=      5-min Rain = 0
KEN1 241250Z 21015KT 18/11 A2983 RMK A01 T01770114  RH  066%=      5-min Rain = 0
KEN1 241251Z 21014KT 18/11 A2983 RMK A01 T01780114  RH  066%=      5-min Rain = 0
KEN1 241252Z 21017KT 18/11 A2983 RMK A01 T01780114  RH  066%=      5-min Rain = 0
KEN1 241253Z 21016KT 18/11 A2983 RMK A01 T01780113  RH  066%=      5-min Rain = 0
KEN1 241254Z 22014KT 18/11 A2983 RMK A01 T01790114  RH  066%=      5-min Rain = 0
KEN1 241255Z 21017KT 18/11 A2983 RMK A01 T01800114  RH  065%=      5-min Rain = 0
KEN1 241256Z 22015KT 18/11 A2983 RMK A01 T01800114  RH  065%=      5-min Rain = 0
KEN1 241257Z 21014KT 18/11 A2984 RMK A01 T01800114  RH  065%=      5-min Rain = 0
KEN1 241258Z 21013KT 18/11 A2984 RMK A01 T01810114  RH  065%=      5-min Rain = 0
KEN1 241259Z 21013KT 18/11 A2984 RMK A01 T01820114  RH  065%=      5-min Rain = 0
KEN1 241300Z 22015KT 18/11 A2984 RMK A01 T01820114  RH  064%=      5-min Rain = 0
KEN1 241301Z 21014G19KT 18/11 A2984 RMK A01 T01830113  RH  064%=      5-min Rain = 0
KEN1 241302Z 22015KT 18/11 A2984 RMK A01 T01840114  RH  064%=      5-min Rain = 0
KEN1 241303Z 22017KT 18/11 A2984 RMK A01 T01840114  RH  063%=      5-min Rain = 0
KEN1 241304Z 22015KT 19/11 A2984 RMK A01 T01850113  RH  063%=      5-min Rain = 0
KEN1 241305Z 22014KT 19/11 A2984 RMK A01 T01860113  RH  063%=      5-min Rain = 0
KEN1 241306Z 22014KT 19/11 A2984 RMK A01 T01860113  RH  062%=      5-min Rain = 0
KEN1 241307Z 22015KT 19/11 A2984 RMK A01 T01870113  RH  062%=      5-min Rain = 0
KEN1 241308Z 22011G16KT 19/11 A2985 RMK A01 T01880113  RH  062%=      5-min Rain = 0
KEN1 241309Z 23013KT 19/11 A2985 RMK A01 T01880114  RH  062%=      5-min Rain = 0
KEN1 241310Z 22015KT 19/11 A2985 RMK A01 T01890112  RH  061%=      5-min Rain = 0
KEN1 241311Z 23010G15KT 19/11 A2985 RMK A01 T01890113  RH  061%=      5-min Rain = 0
KEN1 241312Z 22014KT 19/11 A2985 RMK A01 T01900113  RH  061%=      5-min Rain = 0
KEN1 241313Z 22014KT 19/11 A2985 RMK A01 T01910113  RH  061%=      5-min Rain = 0
KEN1 241314Z 22013KT 19/11 A2985 RMK A01 T01910112  RH  060%=      5-min Rain = 0
KEN1 241315Z 23011KT 19/11 A2985 RMK A01 T01920112  RH  060%=      5-min Rain = 0
KEN1 241316Z 22011KT 19/11 A2985 RMK A01 T01930113  RH  060%=      5-min Rain = 0
KEN1 241317Z 23015KT 19/11 A2985 RMK A01 T01940112  RH  059%=      5-min Rain = 0
KEN1 241318Z 23013KT 20/11 A2985 RMK A01 T01950111  RH  058%=      5-min Rain = 0
KEN1 241319Z 22012KT 20/11 A2985 RMK A01 T01960112  RH  058%=      5-min Rain = 0
KEN1 241320Z 23013KT 20/11 A2985 RMK A01 T01960111  RH  058%=      5-min Rain = 0
KEN1 241321Z 22013KT 20/11 A2985 RMK A01 T01960111  RH  058%=      5-min Rain = 0
KEN1 241322Z 24012KT 20/11 A2985 RMK A01 T01970110  RH  057%=      5-min Rain = 0
KEN1 241323Z 25011KT 20/11 A2986 RMK A01 T01970110  RH  057%=      5-min Rain = 0
KEN1 241324Z 27010KT 20/11 A2986 RMK A01 T01980111  RH  057%=      5-min Rain = 0
KEN1 241325Z 27011KT 20/11 A2986 RMK A01 T02000109  RH  056%=      5-min Rain = 0
KEN1 241326Z 27011KT 20/11 A2987 RMK A01 T02020107  RH  054%=      5-min Rain = 0
KEN1 241327Z 29010KT 20/11 A2987 RMK A01 T02030108  RH  054%=      5-min Rain = 0
KEN1 241328Z 29012KT 20/11 A2987 RMK A01 T02040109  RH  054%=      5-min Rain = 0
KEN1 241329Z 28013KT 21/11 A2987 RMK A01 T02050108  RH  054%=      5-min Rain = 0
KEN1 241330Z 27012KT 21/11 A2987 RMK A01 T02050108  RH  054%=      5-min Rain = 0
KEN1 241331Z 26011KT 20/11 A2987 RMK A01 T02040108  RH  054%=      5-min Rain = 0
KEN1 241332Z 26014KT 20/11 A2987 RMK A01 T02040107  RH  054%=      5-min Rain = 0
KEN1 241333Z 26013KT 20/11 A2987 RMK A01 T02040106  RH  053%=      5-min Rain = 0
KEN1 241334Z 26013KT 20/11 A2987 RMK A01 T02040106  RH  053%=      5-min Rain = 0
KEN1 241335Z 26010KT 20/11 A2987 RMK A01 T02030105  RH  053%=      5-min Rain = 0
KEN1 241336Z 27010KT 20/11 A2987 RMK A01 T02030105  RH  053%=      5-min Rain = 0
KEN1 241337Z 27011KT 20/10 A2987 RMK A01 T02020104  RH  053%=      5-min Rain = 0
KEN1 241338Z 26009KT 20/10 A2987 RMK A01 T02010104  RH  053%=      5-min Rain = 0
KEN1 241339Z 26009KT 20/10 A2987 RMK A01 T02000104  RH  054%=      5-min Rain = 0
KEN1 241340Z 27007KT 20/10 A2987 RMK A01 T02000103  RH  053%=      5-min Rain = 0
KEN1 241341Z 28011KT 20/10 A2988 RMK A01 T02000100  RH  053%=      5-min Rain = 0
KEN1 241342Z 28008KT 20/10 A2988 RMK A01 T02010097  RH  051%=      5-min Rain = 0
KEN1 241343Z 26008KT 20/10 A2988 RMK A01 T02030099  RH  051%=      5-min Rain = 0
KEN1 241344Z 26009KT 20/10 A2988 RMK A01 T02040098  RH  050%=      5-min Rain = 0
KEN1 241345Z 27008KT 21/10 A2988 RMK A01 T02050098  RH  050%=      5-min Rain = 0
KEN1 241346Z 27009KT 21/10 A2988 RMK A01 T02070099  RH  050%=      5-min Rain = 0
KEN1 241347Z 28010KT 21/10 A2988 RMK A01 T02070097  RH  049%=      5-min Rain = 0
KEN1 241348Z 29013KT 21/09 A2988 RMK A01 T02080094  RH  048%=      5-min Rain = 0
KEN1 241349Z 28013KT 21/09 A2988 RMK A01 T02080091  RH  047%=      5-min Rain = 0
KEN1 241350Z 27013KT 21/09 A2987 RMK A01 T02070090  RH  047%=      5-min Rain = 0
KEN1 241351Z 26012KT 21/09 A2987 RMK A01 T02060089  RH  047%=      5-min Rain = 0
KEN1 241352Z 27011KT 21/09 A2987 RMK A01 T02050088  RH  047%=      5-min Rain = 0
KEN1 241353Z 27011KT 21/09 A2987 RMK A01 T02050090  RH  047%=      5-min Rain = 0
KEN1 241354Z 27013KT 21/09 A2987 RMK A01 T02050089  RH  047%=      5-min Rain = 0
KEN1 241355Z 28014KT 21/09 A2987 RMK A01 T02060087  RH  046%=      5-min Rain = 0
KEN1 241356Z 28015KT 21/09 A2987 RMK A01 T02060087  RH  046%=      5-min Rain = 0
KEN1 241357Z 28015KT 21/09 A2988 RMK A01 T02050087  RH  046%=      5-min Rain = 0
KEN1 241358Z 29016KT 21/09 A2988 RMK A01 T02050087  RH  047%=      5-min Rain = 0
KEN1 241359Z 29015KT 20/09 A2988 RMK A01 T02020086  RH  047%=      5-min Rain = 0
KEN1 241400Z 29015KT 20/09 A2988 RMK A01 T02000087  RH  048%=      5-min Rain = 0
KEN1 241401Z 28015KT 20/09 A2988 RMK A01 T01970086  RH  048%=      5-min Rain = 0
KEN1 241402Z 28012KT 20/09 A2988 RMK A01 T01960088  RH  049%=      5-min Rain = 0
KEN1 241403Z 28015KT 20/09 A2988 RMK A01 T01960088  RH  050%=      5-min Rain = 0
KEN1 241404Z 28013KT 20/09 A2988 RMK A01 T01950086  RH  049%=      5-min Rain = 0
KEN1 241405Z 28012G18KT 20/09 A2988 RMK A01 T01950085  RH  049%=      5-min Rain = 0
KEN1 241406Z 28015KT 20/08 A2988 RMK A01 T01970079  RH  046%=      5-min Rain = 0
KEN1 241407Z 28015KT 20/07 A2988 RMK A01 T02000073  RH  044%=      5-min Rain = 0
KEN1 241408Z 28014KT 20/07 A2988 RMK A01 T02010067  RH  042%=      5-min Rain = 0
KEN1 241409Z 28013KT 20/06 A2988 RMK A01 T02030063  RH  040%=      5-min Rain = 0
KEN1 241410Z 29016KT 20/06 A2988 RMK A01 T02040061  RH  039%=      5-min Rain = 0
KEN1 241411Z 28014KT 21/06 A2988 RMK A01 T02050059  RH  039%=      5-min Rain = 0
KEN1 241412Z 28014KT 21/06 A2988 RMK A01 T02050062  RH  039%=      5-min Rain = 0
KEN1 241413Z 28015KT 21/07 A2988 RMK A01 T02050069  RH  041%=      5-min Rain = 0
KEN1 241414Z 29013KT 20/07 A2988 RMK A01 T02040073  RH  043%=      5-min Rain = 0
KEN1 241415Z 29013KT 20/08 A2988 RMK A01 T02030077  RH  044%=      5-min Rain = 0
KEN1 241416Z 30012KT 20/08 A2988 RMK A01 T02040080  RH  045%=      5-min Rain = 0
KEN1 241417Z 29013KT 20/08 A2988 RMK A01 T02030082  RH  046%=      5-min Rain = 0
KEN1 241418Z 30015KT 20/08 A2988 RMK A01 T02030082  RH  046%=      5-min Rain = 0
KEN1 241419Z 31013KT 20/08 A2988 RMK A01 T02010083  RH  046%=      5-min Rain = 0
KEN1 241420Z 31010KT 20/08 A2988 RMK A01 T02010084  RH  047%=      5-min Rain = 0
KEN1 241421Z 31011KT 20/08 A2988 RMK A01 T02000084  RH  047%=      5-min Rain = 0
KEN1 241422Z 31012KT 20/09 A2988 RMK A01 T02000087  RH  048%=      5-min Rain = 0
KEN1 241423Z 31011KT 20/09 A2988 RMK A01 T02000089  RH  049%=      5-min Rain = 0
KEN1 241424Z 31013KT 20/09 A2988 RMK A01 T02000089  RH  049%=      5-min Rain = 0
KEN1 241425Z 30012KT 20/09 A2988 RMK A01 T01980089  RH  049%=      5-min Rain = 0
KEN1 241426Z 30011KT 20/09 A2988 RMK A01 T01980087  RH  049%=      5-min Rain = 0
KEN1 241427Z 29011KT 20/09 A2988 RMK A01 T01980088  RH  049%=      5-min Rain = 0
KEN1 241428Z 30011KT 20/09 A2988 RMK A01 T02000088  RH  049%=      5-min Rain = 0
KEN1 241429Z 31011KT 20/09 A2988 RMK A01 T02000088  RH  048%=      5-min Rain = 0
KEN1 241430Z 31011KT 20/09 A2988 RMK A01 T02010086  RH  047%=      5-min Rain = 0
KEN1 241431Z 31011KT 20/08 A2988 RMK A01 T02010084  RH  047%=      5-min Rain = 0
KEN1 241432Z 31012KT 20/08 A2988 RMK A01 T02010084  RH  047%=      5-min Rain = 0
KEN1 241433Z 31012KT 20/08 A2988 RMK A01 T02000081  RH  046%=      5-min Rain = 0
KEN1 241434Z 31011KT 20/08 A2988 RMK A01 T01980081  RH  047%=      5-min Rain = 0
KEN1 241435Z 30009KT 20/08 A2988 RMK A01 T01980082  RH  047%=      5-min Rain = 0
KEN1 241436Z 30008KT 20/08 A2988 RMK A01 T02000084  RH  047%=      5-min Rain = 0
KEN1 241437Z 32013KT 20/09 A2988 RMK A01 T02010085  RH  047%=      5-min Rain = 0
KEN1 241438Z 32011KT 20/08 A2988 RMK A01 T02010084  RH  047%=      5-min Rain = 0
KEN1 241439Z 33009KT 20/08 A2988 RMK A01 T02000084  RH  047%=      5-min Rain = 0
KEN1 241440Z 32010KT 20/09 A2988 RMK A01 T02000085  RH  048%=      5-min Rain = 0
KEN1 241441Z 32012KT 20/08 A2988 RMK A01 T02000084  RH  047%=      5-min Rain = 0
KEN1 241442Z 32012KT 20/09 A2988 RMK A01 T01990085  RH  048%=      5-min Rain = 0
KEN1 241443Z 32010KT 20/09 A2988 RMK A01 T01990086  RH  048%=      5-min Rain = 0
KEN1 241444Z 33009KT 20/09 A2989 RMK A01 T01990087  RH  049%=      5-min Rain = 0
KEN1 241445Z 34010KT 20/09 A2989 RMK A01 T01990089  RH  049%=      5-min Rain = 0
KEN1 241446Z 34011KT 20/09 A2989 RMK A01 T01990090  RH  049%=      5-min Rain = 0
KEN1 241447Z 33012KT 20/09 A2989 RMK A01 T01980090  RH  050%=      5-min Rain = 0
KEN1 241448Z 33010KT 20/09 A2989 RMK A01 T01960090  RH  051%=      5-min Rain = 0
KEN1 241449Z 33011G16KT 20/09 A2989 RMK A01 T01950092  RH  051%=      5-min Rain = 0
KEN1 241450Z 34012KT 20/09 A2989 RMK A01 T01950094  RH  052%=      5-min Rain = 0
KEN1 241451Z 35011KT 20/10 A2989 RMK A01 T01950096  RH  053%=      5-min Rain = 0
KEN1 241452Z 35010KT 20/10 A2989 RMK A01 T01960096  RH  052%=      5-min Rain = 0
KEN1 241453Z 35009KT 20/10 A2989 RMK A01 T01970097  RH  052%=      5-min Rain = 0
KEN1 241454Z 34010KT 20/10 A2989 RMK A01 T01980097  RH  052%=      5-min Rain = 0
KEN1 241455Z 34011KT 20/10 A2989 RMK A01 T01970097  RH  052%=      5-min Rain = 0
KEN1 241456Z 35011KT 20/10 A2989 RMK A01 T01970097  RH  052%=      5-min Rain = 0
KEN1 241457Z 35010KT 20/10 A2989 RMK A01 T01960097  RH  053%=      5-min Rain = 0
KEN1 241458Z 35013KT 20/10 A2989 RMK A01 T01960097  RH  053%=      5-min Rain = 0
KEN1 241459Z 36012KT 20/10 A2989 RMK A01 T01970097  RH  053%=      5-min Rain = 0
KEN1 241500Z 35012KT 20/10 A2989 RMK A01 T01970097  RH  053%=      5-min Rain = 0
KEN1 241501Z 00013KT 20/10 A2989 RMK A01 T01980098  RH  052%=      5-min Rain = 0
KEN1 241502Z 00011KT 20/10 A2989 RMK A01 T01980098  RH  052%=      5-min Rain = 0
KEN1 241503Z 36010KT 20/10 A2989 RMK A01 T01980098  RH  053%=      5-min Rain = 0
KEN1 241504Z 35012KT 20/10 A2989 RMK A01 T02000098  RH  052%=      5-min Rain = 0
KEN1 241505Z 35011KT 20/10 A2989 RMK A01 T02000097  RH  051%=      5-min Rain = 0
KEN1 241506Z 35009KT 20/10 A2989 RMK A01 T01990098  RH  052%=      5-min Rain = 0
KEN1 241507Z 34011KT 20/10 A2989 RMK A01 T02000097  RH  052%=      5-min Rain = 0
KEN1 241508Z 34011KT 20/10 A2989 RMK A01 T02010098  RH  052%=      5-min Rain = 0
KEN1 241509Z 34012KT 20/10 A2989 RMK A01 T02010097  RH  051%=      5-min Rain = 0
KEN1 241510Z 34012KT 20/10 A2989 RMK A01 T02010097  RH  051%=      5-min Rain = 0
KEN1 241511Z 34011KT 20/10 A2989 RMK A01 T02010096  RH  051%=      5-min Rain = 0
KEN1 241512Z 35012KT 20/10 A2989 RMK A01 T02010097  RH  051%=      5-min Rain = 0
KEN1 241513Z 35011KT 20/10 A2988 RMK A01 T02020095  RH  050%=      5-min Rain = 0
KEN1 241514Z 01013KT 20/10 A2988 RMK A01 T02010095  RH  051%=      5-min Rain = 0
KEN1 241515Z 00013KT 20/10 A2988 RMK A01 T02030097  RH  050%=      5-min Rain = 0
KEN1 241516Z 35011KT 20/10 A2988 RMK A01 T02040096  RH  050%=      5-min Rain = 0
KEN1 241517Z 35013KT 21/10 A2988 RMK A01 T02050096  RH  050%=      5-min Rain = 0
KEN1 241518Z 36011KT 21/09 A2988 RMK A01 T02050094  RH  049%=      5-min Rain = 0
KEN1 241519Z 35010KT 21/10 A2988 RMK A01 T02050095  RH  049%=      5-min Rain = 0
KEN1 241520Z 34011KT 21/10 A2988 RMK A01 T02060097  RH  049%=      5-min Rain = 0
KEN1 241521Z 35009KT 21/10 A2988 RMK A01 T02070096  RH  049%=      5-min Rain = 0
KEN1 241522Z 01009KT 21/10 A2988 RMK A01 T02100099  RH  049%=      5-min Rain = 0
KEN1 241523Z 35010KT 21/10 A2988 RMK A01 T02120098  RH  048%=      5-min Rain = 0
KEN1 241524Z 34008KT 21/10 A2988 RMK A01 T02110096  RH  048%=      5-min Rain = 0
KEN1 241525Z 35012KT 21/10 A2988 RMK A01 T02110096  RH  048%=      5-min Rain = 0
KEN1 241526Z 35009KT 21/10 A2988 RMK A01 T02120096  RH  047%=      5-min Rain = 0
KEN1 241527Z 35010KT 21/10 A2988 RMK A01 T02120096  RH  048%=      5-min Rain = 0
KEN1 241528Z 00010KT 21/10 A2988 RMK A01 T02100096  RH  048%=      5-min Rain = 0
KEN1 241529Z 01012KT 21/10 A2988 RMK A01 T02120095  RH  047%=      5-min Rain = 0
KEN1 241530Z 36012KT 21/10 A2988 RMK A01 T02130096  RH  047%=      5-min Rain = 0
KEN1 241531Z 35011KT 21/10 A2988 RMK A01 T02130095  RH  047%=      5-min Rain = 0
KEN1 241532Z 36007KT 21/10 A2988 RMK A01 T02130095  RH  047%=      5-min Rain = 0
KEN1 241533Z 00010KT 21/10 A2988 RMK A01 T02130095  RH  047%=      5-min Rain = 0
KEN1 241534Z 00008KT 21/10 A2988 RMK A01 T02130097  RH  047%=      5-min Rain = 0
KEN1 241535Z 00007KT 21/10 A2988 RMK A01 T02130097  RH  047%=      5-min Rain = 0
KEN1 241536Z 35010KT 21/10 A2988 RMK A01 T02130097  RH  047%=      5-min Rain = 0
KEN1 241537Z 35012KT 22/09 A2988 RMK A01 T02150093  RH  046%=      5-min Rain = 0
KEN1 241538Z 36010KT 21/09 A2988 RMK A01 T02140092  RH  046%=      5-min Rain = 0
KEN1 241539Z 01010KT 22/09 A2988 RMK A01 T02150092  RH  045%=      5-min Rain = 0
KEN1 241540Z 02010KT 22/09 A2988 RMK A01 T02150092  RH  045%=      5-min Rain = 0
KEN1 241541Z 01012KT 22/10 A2988 RMK A01 T02150095  RH  046%=      5-min Rain = 0
KEN1 241542Z 01011KT 22/10 A2988 RMK A01 T02190096  RH  045%=      5-min Rain = 0
KEN1 241543Z 01009KT 22/09 A2988 RMK A01 T02170093  RH  045%=      5-min Rain = 0
KEN1 241544Z 01012KT 22/10 A2988 RMK A01 T02160095  RH  046%=      5-min Rain = 0
KEN1 241545Z 01011KT 22/09 A2988 RMK A01 T02180092  RH  044%=      5-min Rain = 0
KEN1 241546Z 01008KT 22/09 A2988 RMK A01 T02150089  RH  044%=      5-min Rain = 0
KEN1 241547Z 01011KT 22/09 A2988 RMK A01 T02150092  RH  045%=      5-min Rain = 0
KEN1 241548Z 01014KT 22/09 A2988 RMK A01 T02160091  RH  045%=      5-min Rain = 0
KEN1 241549Z 35013KT 22/09 A2988 RMK A01 T02180091  RH  044%=      5-min Rain = 0
KEN1 241550Z 00011KT 22/09 A2988 RMK A01 T02190091  RH  044%=      5-min Rain = 0
KEN1 241551Z 01012KT 22/09 A2988 RMK A01 T02200090  RH  043%=      5-min Rain = 0
KEN1 241552Z 35012KT 22/09 A2988 RMK A01 T02220092  RH  044%=      5-min Rain = 0
KEN1 241553Z 34010KT 23/09 A2988 RMK A01 T02250090  RH  042%=      5-min Rain = 0
KEN1 241554Z 35013KT 23/09 A2988 RMK A01 T02260089  RH  042%=      5-min Rain = 0
KEN1 241555Z 34013KT 22/09 A2988 RMK A01 T02240087  RH  041%=      5-min Rain = 0
KEN1 241556Z 35010KT 22/09 A2988 RMK A01 T02230087  RH  042%=      5-min Rain = 0
KEN1 241557Z 36013KT 22/09 A2988 RMK A01 T02210086  RH  042%=      5-min Rain = 0
KEN1 241558Z 36012KT 22/09 A2988 RMK A01 T02180087  RH  043%=      5-min Rain = 0
KEN1 241559Z 36011KT 22/09 A2988 RMK A01 T02170087  RH  043%=      5-min Rain = 0
KEN1 241600Z 36011KT 22/09 A2988 RMK A01 T02170087  RH  043%=      5-min Rain = 0
KEN1 241601Z 35011KT 22/09 A2988 RMK A01 T02180088  RH  043%=      5-min Rain = 0
KEN1 241602Z 34013KT 22/09 A2988 RMK A01 T02200087  RH  042%=      5-min Rain = 0
KEN1 241603Z 34012KT 22/09 A2988 RMK A01 T02200085  RH  042%=      5-min Rain = 0
KEN1 241604Z 35011KT 22/08 A2988 RMK A01 T02200084  RH  042%=      5-min Rain = 0
KEN1 241605Z 36012KT 22/08 A2988 RMK A01 T02190083  RH  042%=      5-min Rain = 0
KEN1 241606Z 35010KT 22/08 A2988 RMK A01 T02190083  RH  042%=      5-min Rain = 0
KEN1 241607Z 36011KT 22/09 A2988 RMK A01 T02200086  RH  042%=      5-min Rain = 0
KEN1 241608Z 35013KT 22/09 A2988 RMK A01 T02230088  RH  042%=      5-min Rain = 0
KEN1 241609Z 33012KT 23/09 A2988 RMK A01 T02260087  RH  041%=      5-min Rain = 0
KEN1 241610Z 35012KT 23/09 A2988 RMK A01 T02250086  RH  041%=      5-min Rain = 0
KEN1 241611Z 34011KT 23/09 A2988 RMK A01 T02250086  RH  041%=      5-min Rain = 0
KEN1 241612Z 34008KT 23/09 A2988 RMK A01 T02260088  RH  041%=      5-min Rain = 0
KEN1 241613Z 35012KT 23/09 A2988 RMK A01 T02260089  RH  042%=      5-min Rain = 0
KEN1 241614Z 35011KT 23/09 A2988 RMK A01 T02280090  RH  041%=      5-min Rain = 0
KEN1 241615Z 35012KT 23/09 A2988 RMK A01 T02290089  RH  041%=      5-min Rain = 0
KEN1 241616Z 35010G15KT 23/09 A2988 RMK A01 T02280087  RH  041%=      5-min Rain = 0
KEN1 241617Z 34012G17KT 23/09 A2988 RMK A01 T02270086  RH  041%=      5-min Rain = 0
KEN1 241618Z 34013KT 23/09 A2988 RMK A01 T02260087  RH  041%=      5-min Rain = 0
KEN1 241619Z 34012KT 23/09 A2988 RMK A01 T02280085  RH  040%=      5-min Rain = 0
KEN1 241620Z 34011KT 23/08 A2988 RMK A01 T02260084  RH  040%=      5-min Rain = 0
KEN1 241621Z 35010KT 23/09 A2988 RMK A01 T02270088  RH  041%=      5-min Rain = 0
KEN1 241622Z 36012KT 23/09 A2988 RMK A01 T02290089  RH  041%=      5-min Rain = 0
KEN1 241623Z 36011KT 23/09 A2988 RMK A01 T02300087  RH  040%=      5-min Rain = 0
KEN1 241624Z 35010KT 23/09 A2988 RMK A01 T02280087  RH  040%=      5-min Rain = 0
KEN1 241625Z 34009KT 23/09 A2988 RMK A01 T02270089  RH  041%=      5-min Rain = 0
KEN1 241626Z 01008KT 23/09 A2988 RMK A01 T02280089  RH  041%=      5-min Rain = 0
KEN1 241627Z 02010KT 23/09 A2988 RMK A01 T02290091  RH  041%=      5-min Rain = 0
KEN1 241628Z 35015KT 23/09 A2988 RMK A01 T02300089  RH  041%=      5-min Rain = 0
KEN1 241629Z 35014KT 23/09 A2988 RMK A01 T02310089  RH  040%=      5-min Rain = 0
KEN1 241630Z 00011KT 23/09 A2988 RMK A01 T02330085  RH  039%=      5-min Rain = 0
KEN1 241631Z 35009KT 23/09 A2988 RMK A01 T02310087  RH  040%=      5-min Rain = 0
KEN1 241632Z 35009KT 23/09 A2988 RMK A01 T02310086  RH  040%=      5-min Rain = 0
KEN1 241633Z 00009KT 23/09 A2988 RMK A01 T02300088  RH  040%=      5-min Rain = 0
KEN1 241634Z 36008KT 23/09 A2988 RMK A01 T02320088  RH  040%=      5-min Rain = 0
KEN1 241635Z 01010KT 23/09 A2988 RMK A01 T02320089  RH  040%=      5-min Rain = 0
KEN1 241636Z 35010KT 23/09 A2988 RMK A01 T02340089  RH  040%=      5-min Rain = 0
KEN1 241637Z 34007KT 24/09 A2988 RMK A01 T02360088  RH  039%=      5-min Rain = 0
KEN1 241638Z 31010G17KT 24/09 A2988 RMK A01 T02380088  RH  039%=      5-min Rain = 0
KEN1 241639Z 35013G18KT 24/09 A2988 RMK A01 T02400087  RH  038%=      5-min Rain = 0
KEN1 241640Z 35011KT 24/08 A2988 RMK A01 T02390081  RH  036%=      5-min Rain = 0
KEN1 241641Z 35010KT 24/08 A2988 RMK A01 T02360080  RH  037%=      5-min Rain = 0
KEN1 241642Z 34009KT 23/08 A2988 RMK A01 T02340080  RH  037%=      5-min Rain = 0
KEN1 241643Z 35012KT 23/08 A2988 RMK A01 T02330078  RH  037%=      5-min Rain = 0
KEN1 241644Z 36010KT 23/08 A2988 RMK A01 T02330078  RH  037%=      5-min Rain = 0
KEN1 241645Z 34010KT 23/08 A2988 RMK A01 T02340081  RH  037%=      5-min Rain = 0
KEN1 241646Z 36008KT 24/08 A2988 RMK A01 T02350080  RH  037%=      5-min Rain = 0
KEN1 241647Z 35008KT 24/08 A2988 RMK A01 T02350077  RH  036%=      5-min Rain = 0
KEN1 241648Z 36007KT 23/08 A2988 RMK A01 T02330075  RH  036%=      5-min Rain = 0
KEN1 241649Z 01012KT 23/08 A2988 RMK A01 T02330079  RH  037%=      5-min Rain = 0
KEN1 241650Z 00010KT 24/08 A2988 RMK A01 T02350080  RH  037%=      5-min Rain = 0
KEN1 241651Z 00009KT 24/08 A2988 RMK A01 T02370079  RH  036%=      5-min Rain = 0
KEN1 241652Z 00008KT 24/08 A2988 RMK A01 T02350077  RH  036%=      5-min Rain = 0
KEN1 241653Z 01008KT 23/08 A2988 RMK A01 T02340077  RH  036%=      5-min Rain = 0
KEN1 241654Z 36007KT 23/08 A2988 RMK A01 T02330078  RH  037%=      5-min Rain = 0
KEN1 241655Z 01007KT 24/08 A2988 RMK A01 T02370082  RH  037%=      5-min Rain = 0
KEN1 241656Z 01006KT 24/08 A2988 RMK A01 T02400082  RH  036%=      5-min Rain = 0
KEN1 241657Z 36007KT 24/08 A2988 RMK A01 T02400080  RH  036%=      5-min Rain = 0
KEN1 241658Z 00006KT 24/08 A2988 RMK A01 T02390081  RH  036%=      5-min Rain = 0
KEN1 241659Z 01006G11KT 24/08 A2988 RMK A01 T02380083  RH  037%=      5-min Rain = 0
KEN1 241700Z 35010KT 24/08 A2988 RMK A01 T02410084  RH  037%=      5-min Rain = 0
KEN1 241701Z 35007KT 24/08 A2988 RMK A01 T02430082  RH  036%=      5-min Rain = 0
KEN1 241702Z 35009KT 24/08 A2988 RMK A01 T02430083  RH  036%=      5-min Rain = 0
KEN1 241703Z 35009KT 24/08 A2988 RMK A01 T02440081  RH  035%=      5-min Rain = 0
KEN1 241704Z 35006KT 24/08 A2988 RMK A01 T02420078  RH  035%=      5-min Rain = 0
KEN1 241705Z 35007KT 24/08 A2988 RMK A01 T02400080  RH  036%=      5-min Rain = 0
KEN1 241706Z 34006KT 24/08 A2988 RMK A01 T02400078  RH  035%=      5-min Rain = 0
KEN1 241707Z 32006KT 24/08 A2988 RMK A01 T02380077  RH  036%=      5-min Rain = 0
KEN1 241708Z 35004KT 24/08 A2988 RMK A01 T02380075  RH  035%=      5-min Rain = 0
KEN1 241709Z 36004KT 24/08 A2988 RMK A01 T02360075  RH  035%=      5-min Rain = 0
KEN1 241710Z 34003KT 24/08 A2988 RMK A01 T02370079  RH  036%=      5-min Rain = 0
KEN1 241711Z 31008KT 24/08 A2988 RMK A01 T02430077  RH  035%=      5-min Rain = 0
KEN1 241712Z 32007KT 25/07 A2988 RMK A01 T02460071  RH  033%=      5-min Rain = 0
KEN1 241713Z 35010KT 25/08 A2988 RMK A01 T02460077  RH  034%=      5-min Rain = 0
KEN1 241714Z 36009KT 25/08 A2988 RMK A01 T02470078  RH  034%=      5-min Rain = 0
KEN1 241715Z 01009KT 25/08 A2988 RMK A01 T02460076  RH  034%=      5-min Rain = 0
KEN1 241716Z 35007KT 24/07 A2988 RMK A01 T02440073  RH  034%=      5-min Rain = 0
KEN1 241717Z 34009KT 24/08 A2988 RMK A01 T02410075  RH  034%=      5-min Rain = 0
KEN1 241718Z 34004KT 24/07 A2988 RMK A01 T02430074  RH  034%=      5-min Rain = 0
KEN1 241719Z 35005KT 24/07 A2988 RMK A01 T02420073  RH  034%=      5-min Rain = 0
KEN1 241720Z 33006KT 24/08 A2988 RMK A01 T02420076  RH  035%=      5-min Rain = 0
KEN1 241721Z 32008KT 25/08 A2988 RMK A01 T02470077  RH  034%=      5-min Rain = 0
KEN1 241722Z 32007KT 25/08 A2988 RMK A01 T02500077  RH  033%=      5-min Rain = 0
KEN1 241723Z 31005KT 25/08 A2988 RMK A01 T02480075  RH  033%=      5-min Rain = 0
KEN1 241724Z 28003KT 25/07 A2988 RMK A01 T02450069  RH  032%=      5-min Rain = 0
KEN1 241725Z 36006KT 24/07 A2988 RMK A01 T02440071  RH  033%=      5-min Rain = 0
KEN1 241726Z 34002KT 25/06 A2988 RMK A01 T02460062  RH  031%=      5-min Rain = 0
KEN1 241727Z 31002KT 25/06 A2988 RMK A01 T02460062  RH  031%=      5-min Rain = 0
KEN1 241728Z 02002KT 25/06 A2988 RMK A01 T02460061  RH  030%=      5-min Rain = 0
KEN1 241729Z 00007KT 25/07 A2988 RMK A01 T02460066  RH  032%=      5-min Rain = 0
KEN1 241730Z 00006KT 25/07 A2988 RMK A01 T02480066  RH  031%=      5-min Rain = 0
KEN1 241731Z 35003KT 25/07 A2988 RMK A01 T02460068  RH  032%=      5-min Rain = 0
KEN1 241732Z 33005KT 25/07 A2988 RMK A01 T02480074  RH  033%=      5-min Rain = 0
KEN1 241733Z 34004KT 25/07 A2988 RMK A01 T02510066  RH  031%=      5-min Rain = 0
KEN1 241734Z 02003KT 25/06 A2988 RMK A01 T02510062  RH  030%=      5-min Rain = 0
KEN1 241735Z 02003KT 25/06 A2988 RMK A01 T02480057  RH  029%=      5-min Rain = 0
KEN1 241736Z 01004KT 25/06 A2988 RMK A01 T02460064  RH  031%=      5-min Rain = 0
KEN1 241737Z 04003KT 25/07 A2988 RMK A01 T02470073  RH  033%=      5-min Rain = 0
KEN1 241738Z 01006G13KT 25/08 A2988 RMK A01 T02480077  RH  034%=      5-min Rain = 0
KEN1 241739Z 00007KT 25/08 A2988 RMK A01 T02520077  RH  033%=      5-min Rain = 0
KEN1 241740Z 00007KT 25/07 A2988 RMK A01 T02540073  RH  031%=      5-min Rain = 0
KEN1 241741Z 36006KT 25/07 A2988 RMK A01 T02540074  RH  032%=      5-min Rain = 0
KEN1 241742Z 35008KT 25/07 A2988 RMK A01 T02540072  RH  031%=      5-min Rain = 0
KEN1 241743Z 35007KT 25/07 A2988 RMK A01 T02540065  RH  030%=      5-min Rain = 0
KEN1 241744Z 00004KT 26/06 A2988 RMK A01 T02560060  RH  029%=      5-min Rain = 0
KEN1 241745Z 35007KT 26/06 A2987 RMK A01 T02560062  RH  029%=      5-min Rain = 0
KEN1 241746Z 31006KT 26/06 A2988 RMK A01 T02590062  RH  028%=      5-min Rain = 0
KEN1 241747Z 32009KT 26/06 A2988 RMK A01 T02590064  RH  029%=      5-min Rain = 0
KEN1 241748Z 32009KT 26/06 A2988 RMK A01 T02600064  RH  029%=      5-min Rain = 0
KEN1 241749Z 31007KT 26/06 A2988 RMK A01 T02570062  RH  029%=      5-min Rain = 0
KEN1 241750Z 30006KT 26/06 A2988 RMK A01 T02560061  RH  029%=      5-min Rain = 0
KEN1 241751Z 31005KT 25/06 A2988 RMK A01 T02540060  RH  029%=      5-min Rain = 0
KEN1 241752Z 29007KT 25/06 A2987 RMK A01 T02540061  RH  029%=      5-min Rain = 0
KEN1 241753Z 31008KT 25/06 A2988 RMK A01 T02540059  RH  029%=      5-min Rain = 0
KEN1 241754Z 32007KT 26/06 A2987 RMK A01 T02550060  RH  029%=      5-min Rain = 0
KEN1 241755Z 29007KT 26/06 A2987 RMK A01 T02550063  RH  029%=      5-min Rain = 0
KEN1 241756Z 29007KT 26/06 A2988 RMK A01 T02570060  RH  028%=      5-min Rain = 0
KEN1 241757Z 28005KT 26/06 A2987 RMK A01 T02570057  RH  028%=      5-min Rain = 0
KEN1 241758Z 25003KT 26/06 A2987 RMK A01 T02580055  RH  027%=      5-min Rain = 0
KEN1 241759Z 27004KT 26/06 A2987 RMK A01 T02580059  RH  028%=      5-min Rain = 0
KEN1 241800Z 30005KT 26/06 A2987 RMK A01 T02590058  RH  028%=      5-min Rain = 0
KEN1 241801Z 27002KT 26/06 A2987 RMK A01 T02580058  RH  028%=      5-min Rain = 0
KEN1 241802Z 20003KT 26/06 A2987 RMK A01 T02580060  RH  028%=      5-min Rain = 0
KEN1 241803Z 22005KT 26/06 A2987 RMK A01 T02590059  RH  028%=      5-min Rain = 0
KEN1 241804Z 22006KT 26/06 A2987 RMK A01 T02620063  RH  028%=      5-min Rain = 0
KEN1 241805Z 21005KT 26/06 A2987 RMK A01 T02630060  RH  027%=      5-min Rain = 0
KEN1 241806Z 22004KT 26/06 A2987 RMK A01 T02610061  RH  028%=      5-min Rain = 0
KEN1 241807Z 23002KT 26/06 A2987 RMK A01 T02610061  RH  028%=      5-min Rain = 0
KEN1 241808Z 18001KT 26/06 A2987 RMK A01 T02610062  RH  028%=      5-min Rain = 0
KEN1 241809Z 03001KT 26/06 A2987 RMK A01 T02630059  RH  027%=      5-min Rain = 0
KEN1 241810Z 02003KT 26/06 A2987 RMK A01 T02640063  RH  028%=      5-min Rain = 0
KEN1 241811Z 03006KT 27/06 A2987 RMK A01 T02650062  RH  027%=      5-min Rain = 0
KEN1 241812Z 01007KT 27/07 A2987 RMK A01 T02650065  RH  028%=      5-min Rain = 0
KEN1 241813Z 02005KT 26/06 A2987 RMK A01 T02640061  RH  027%=      5-min Rain = 0
KEN1 241814Z 03003KT 26/06 A2987 RMK A01 T02620060  RH  028%=      5-min Rain = 0
KEN1 241815Z 00004KT 26/06 A2987 RMK A01 T02600061  RH  028%=      5-min Rain = 0
KEN1 241816Z 35006KT 26/06 A2987 RMK A01 T02600060  RH  028%=      5-min Rain = 0
KEN1 241817Z 01006KT 26/06 A2987 RMK A01 T02600061  RH  028%=      5-min Rain = 0
KEN1 241818Z 34007KT 26/06 A2987 RMK A01 T02630063  RH  028%=      5-min Rain = 0
KEN1 241819Z 34003KT 26/06 A2987 RMK A01 T02620060  RH  027%=      5-min Rain = 0
KEN1 241820Z 33003KT 26/06 A2987 RMK A01 T02600057  RH  027%=      5-min Rain = 0
KEN1 241821Z 02001KT 26/06 A2987 RMK A01 T02590057  RH  027%=      5-min Rain = 0
KEN1 241822Z 06003KT 26/06 A2987 RMK A01 T02590061  RH  028%=      5-min Rain = 0
KEN1 241823Z 06002KT 26/06 A2987 RMK A01 T02620058  RH  027%=      5-min Rain = 0
KEN1 241824Z 32004KT 26/06 A2987 RMK A01 T02630058  RH  027%=      5-min Rain = 0
KEN1 241825Z 33006KT 27/05 A2987 RMK A01 T02650054  RH  026%=      5-min Rain = 0
KEN1 241826Z 32009KT 27/06 A2986 RMK A01 T02670057  RH  026%=      5-min Rain = 0
KEN1 241827Z 32009KT 27/05 A2987 RMK A01 T02690053  RH  025%=      5-min Rain = 0
KEN1 241828Z 33006KT 27/05 A2986 RMK A01 T02680052  RH  025%=      5-min Rain = 0
KEN1 241829Z 32004KT 27/05 A2986 RMK A01 T02680050  RH  025%=      5-min Rain = 0
KEN1 241830Z 32004KT 27/05 A2986 RMK A01 T02680050  RH  025%=      5-min Rain = 0
KEN1 241831Z 33004KT 27/05 A2986 RMK A01 T02660052  RH  025%=      5-min Rain = 0
KEN1 241832Z 34006KT 27/05 A2986 RMK A01 T02680050  RH  025%=      5-min Rain = 0
KEN1 241833Z 33004KT 27/05 A2986 RMK A01 T02680049  RH  025%=      5-min Rain = 0
KEN1 241834Z 30005KT 27/06 A2986 RMK A01 T02690055  RH  025%=      5-min Rain = 0
KEN1 241835Z 25004KT 27/05 A2986 RMK A01 T02720053  RH  025%=      5-min Rain = 0
KEN1 241836Z 29003KT 27/05 A2986 RMK A01 T02710053  RH  025%=      5-min Rain = 0
KEN1 241837Z 33005KT 27/06 A2986 RMK A01 T02710058  RH  026%=      5-min Rain = 0
KEN1 241838Z 34008KT 27/06 A2986 RMK A01 T02720056  RH  025%=      5-min Rain = 0
KEN1 241839Z 34007KT 27/05 A2986 RMK A01 T02700049  RH  024%=      5-min Rain = 0
KEN1 241840Z 35006KT 27/05 A2986 RMK A01 T02650049  RH  025%=      5-min Rain = 0
KEN1 241841Z 32007KT 26/05 A2986 RMK A01 T02630052  RH  026%=      5-min Rain = 0
KEN1 241842Z 33005KT 26/05 A2986 RMK A01 T02620049  RH  026%=      5-min Rain = 0
KEN1 241843Z 31004KT 26/05 A2986 RMK A01 T02600049  RH  026%=      5-min Rain = 0
KEN1 241844Z 31004KT 26/05 A2986 RMK A01 T02600051  RH  026%=      5-min Rain = 0
KEN1 241845Z 31004KT 26/05 A2986 RMK A01 T02600051  RH  026%=      5-min Rain = 0
KEN1 241846Z 33004KT 26/05 A2986 RMK A01 T02610052  RH  026%=      5-min Rain = 0
KEN1 241847Z 33005KT 26/05 A2986 RMK A01 T02610052  RH  026%=      5-min Rain = 0
KEN1 241848Z 33004KT 26/05 A2986 RMK A01 T02610051  RH  026%=      5-min Rain = 0
KEN1 241849Z 35003KT 26/05 A2986 RMK A01 T02620052  RH  026%=      5-min Rain = 0
KEN1 241850Z 30004KT 26/05 A2986 RMK A01 T02620051  RH  026%=      5-min Rain = 0
KEN1 241851Z 32002KT 26/05 A2986 RMK A01 T02610051  RH  026%=      5-min Rain = 0
KEN1 241852Z 33006KT 26/06 A2985 RMK A01 T02620055  RH  026%=      5-min Rain = 0
KEN1 241853Z 35005KT 26/05 A2985 RMK A01 T02640050  RH  025%=      5-min Rain = 0
KEN1 241854Z 35003KT 26/05 A2985 RMK A01 T02630049  RH  025%=      5-min Rain = 0
KEN1 241855Z 32003KT 26/05 A2985 RMK A01 T02630050  RH  026%=      5-min Rain = 0
KEN1 241856Z 29001KT 26/05 A2985 RMK A01 T02630049  RH  025%=      5-min Rain = 0
KEN1 241857Z 27001KT 26/05 A2985 RMK A01 T02630050  RH  026%=      5-min Rain = 0
KEN1 241858Z 00000KT 26/05 A2985 RMK A01 T02640051  RH  026%=      5-min Rain = 0
KEN1 241859Z 20000KT 27/05 A2985 RMK A01 T02650050  RH  025%=      5-min Rain = 0
KEN1 241900Z 21000KT 27/05 A2985 RMK A01 T02660048  RH  025%=      5-min Rain = 0
KEN1 241901Z 28002KT 27/05 A2985 RMK A01 T02670048  RH  025%=      5-min Rain = 0
KEN1 241902Z 27005KT 27/05 A2985 RMK A01 T02690050  RH  025%=      5-min Rain = 0
KEN1 241903Z 29005KT 27/05 A2985 RMK A01 T02720048  RH  024%=      5-min Rain = 0
KEN1 241904Z 26006KT 27/04 A2985 RMK A01 T02730044  RH  023%=      5-min Rain = 0
KEN1 241905Z 25003KT 27/04 A2985 RMK A01 T02730036  RH  022%=      5-min Rain = 0
KEN1 241906Z 27003KT 27/04 A2985 RMK A01 T02730040  RH  022%=      5-min Rain = 0
KEN1 241907Z 26004KT 27/04 A2985 RMK A01 T02730042  RH  023%=      5-min Rain = 0
KEN1 241908Z 25004KT 27/04 A2985 RMK A01 T02740044  RH  023%=      5-min Rain = 0
KEN1 241909Z 28006KT 27/04 A2985 RMK A01 T02740040  RH  022%=      5-min Rain = 0
KEN1 241910Z 28008KT 27/04 A2985 RMK A01 T02730040  RH  022%=      5-min Rain = 0
KEN1 241911Z 29007KT 27/04 A2985 RMK A01 T02700035  RH  022%=      5-min Rain = 0
KEN1 241912Z 27003KT 27/04 A2985 RMK A01 T02690037  RH  022%=      5-min Rain = 0
KEN1 241913Z 22005KT 27/04 A2985 RMK A01 T02700037  RH  022%=      5-min Rain = 0
KEN1 241914Z 23003KT 27/04 A2985 RMK A01 T02690038  RH  023%=      5-min Rain = 0
KEN1 241915Z 24001KT 27/04 A2985 RMK A01 T02690036  RH  022%=      5-min Rain = 0
KEN1 241916Z 01001KT 27/04 A2985 RMK A01 T02690037  RH  022%=      5-min Rain = 0
KEN1 241917Z 19002KT 27/04 A2984 RMK A01 T02690040  RH  023%=      5-min Rain = 0
KEN1 241918Z 18004KT 27/04 A2984 RMK A01 T02700038  RH  023%=      5-min Rain = 0
KEN1 241919Z 15004KT 27/04 A2984 RMK A01 T02690038  RH  023%=      5-min Rain = 0
KEN1 241920Z 14004KT 27/04 A2984 RMK A01 T02690038  RH  023%=      5-min Rain = 0
KEN1 241921Z 14004KT 27/04 A2984 RMK A01 T02690037  RH  023%=      5-min Rain = 0
KEN1 241922Z 13004KT 27/04 A2984 RMK A01 T02690037  RH  022%=      5-min Rain = 0
KEN1 241923Z 13003KT 27/04 A2984 RMK A01 T02690036  RH  022%=      5-min Rain = 0
KEN1 241924Z 14002KT 27/04 A2984 RMK A01 T02680036  RH  023%=      5-min Rain = 0
KEN1 241925Z 17002KT 27/04 A2984 RMK A01 T02680036  RH  022%=      5-min Rain = 0
KEN1 241926Z 16001KT 27/04 A2984 RMK A01 T02690037  RH  022%=      5-min Rain = 0
KEN1 241927Z 24002KT 27/04 A2984 RMK A01 T02700038  RH  023%=      5-min Rain = 0
KEN1 241928Z 26002KT 27/03 A2984 RMK A01 T02710031  RH  021%=      5-min Rain = 0
KEN1 241929Z 29005KT 27/03 A2984 RMK A01 T02730034  RH  021%=      5-min Rain = 0
KEN1 241930Z 29006KT 28/03 A2984 RMK A01 T02750033  RH  021%=      5-min Rain = 0
KEN1 241931Z 28004KT 28/03 A2984 RMK A01 T02760026  RH  020%=      5-min Rain = 0
KEN1 241932Z 28004KT 28/03 A2984 RMK A01 T02750031  RH  021%=      5-min Rain = 0
KEN1 241933Z 25005KT 28/03 A2984 RMK A01 T02760031  RH  021%=      5-min Rain = 0
KEN1 241934Z 25005KT 28/03 A2984 RMK A01 T02760031  RH  021%=      5-min Rain = 0
KEN1 241935Z 26007KT 28/03 A2984 RMK A01 T02770028  RH  020%=      5-min Rain = 0
KEN1 241936Z 23004KT 28/03 A2984 RMK A01 T02770025  RH  020%=      5-min Rain = 0
KEN1 241937Z 18002KT 28/02 A2984 RMK A01 T02760024  RH  020%=      5-min Rain = 0
KEN1 241938Z 16002KT 28/02 A2984 RMK A01 T02760023  RH  020%=      5-min Rain = 0
KEN1 241939Z 20002KT 28/03 A2984 RMK A01 T02760026  RH  020%=      5-min Rain = 0
KEN1 241940Z 25006KT 28/02 A2984 RMK A01 T02770023  RH  019%=      5-min Rain = 0
KEN1 241941Z 28005KT 28/02 A2984 RMK A01 T02770021  RH  019%=      5-min Rain = 0
KEN1 241942Z 31006KT 28/02 A2984 RMK A01 T02770016  RH  019%=      5-min Rain = 0
KEN1 241943Z 33003KT 28/02 A2984 RMK A01 T02760017  RH  019%=      5-min Rain = 0
KEN1 241944Z 34001KT 28/02 A2983 RMK A01 T02750018  RH  019%=      5-min Rain = 0
KEN1 241945Z 30002KT 28/02 A2984 RMK A01 T02760021  RH  019%=      5-min Rain = 0
KEN1 241946Z 26006KT 28/02 A2984 RMK A01 T02790022  RH  019%=      5-min Rain = 0
KEN1 241947Z 25008KT 28/02 A2983 RMK A01 T02820016  RH  018%=      5-min Rain = 0
KEN1 241948Z 28008KT 29/01 A2983 RMK A01 T02850006  RH  016%=      5-min Rain = 0
KEN1 241949Z 29007KT 28/01 A2983 RMK A01 T02830011  RH  017%=      5-min Rain = 0
KEN1 241950Z 25008KT 28/02 A2983 RMK A01 T02830015  RH  018%=      5-min Rain = 0
KEN1 241951Z 26006KT 28/01 A2983 RMK A01 T02820009  RH  017%=      5-min Rain = 0
KEN1 241952Z 26004KT 28/01 A2983 RMK A01 T02810013  RH  018%=      5-min Rain = 0
KEN1 241953Z 28005KT 28/02 A2983 RMK A01 T02810019  RH  018%=      5-min Rain = 0
KEN1 241954Z 27009KT 28/02 A2983 RMK A01 T02830020  RH  018%=      5-min Rain = 0
KEN1 241955Z 29004KT 28/01 A2983 RMK A01 T02840013  RH  017%=      5-min Rain = 0
KEN1 241956Z 29004KT 28/02 A2983 RMK A01 T02820018  RH  018%=      5-min Rain = 0
KEN1 241957Z 27007KT 28/03 A2983 RMK A01 T02830026  RH  019%=      5-min Rain = 0
KEN1 241958Z 24006KT 29/03 A2983 RMK A01 T02870029  RH  019%=      5-min Rain = 0
KEN1 241959Z 24009KT 29/03 A2983 RMK A01 T02890027  RH  019%=      5-min Rain = 0
KEN1 242000Z 23010KT 29/02 A2983 RMK A01 T02870023  RH  018%=      5-min Rain = 0
KEN1 242001Z 22009KT 29/02 A2983 RMK A01 T02850023  RH  019%=      5-min Rain = 0
KEN1 242002Z 24007KT 29/02 A2983 RMK A01 T02850021  RH  018%=      5-min Rain = 0
KEN1 242003Z 27009KT 29/02 A2983 RMK A01 T02850020  RH  018%=      5-min Rain = 0
KEN1 242004Z 28006G11KT 28/02 A2983 RMK A01 T02840018  RH  018%=      5-min Rain = 0
KEN1 242005Z 28005KT 28/02 A2983 RMK A01 T02840019  RH  018%=      5-min Rain = 0
KEN1 242006Z 29006KT 28/02 A2983 RMK A01 T02820019  RH  018%=      5-min Rain = 0
KEN1 242007Z 28004KT 28/02 A2983 RMK A01 T02810019  RH  018%=      5-min Rain = 0
KEN1 242008Z 25003KT 28/02 A2983 RMK A01 T02800017  RH  018%=      5-min Rain = 0
KEN1 242009Z 16002KT 28/02 A2983 RMK A01 T02790016  RH  018%=      5-min Rain = 0
KEN1 242010Z 11004KT 28/02 A2983 RMK A01 T02790019  RH  019%=      5-min Rain = 0
KEN1 242011Z 08002KT 28/02 A2983 RMK A01 T02780017  RH  018%=      5-min Rain = 0
KEN1 242012Z 08001KT 28/02 A2983 RMK A01 T02780020  RH  019%=      5-min Rain = 0
KEN1 242013Z 06002KT 28/02 A2983 RMK A01 T02780022  RH  019%=      5-min Rain = 0
KEN1 242014Z 05002KT 28/02 A2983 RMK A01 T02800023  RH  019%=      5-min Rain = 0
KEN1 242015Z 34001KT 28/02 A2983 RMK A01 T02800019  RH  019%=      5-min Rain = 0
KEN1 242016Z 31001KT 28/02 A2983 RMK A01 T02800019  RH  019%=      5-min Rain = 0
KEN1 242017Z 27001KT 28/02 A2983 RMK A01 T02800019  RH  019%=      5-min Rain = 0
KEN1 242018Z 28004KT 28/03 A2983 RMK A01 T02810025  RH  019%=      5-min Rain = 0
KEN1 242019Z 27005KT 28/02 A2982 RMK A01 T02820023  RH  019%=      5-min Rain = 0
KEN1 242020Z 28004KT 28/02 A2982 RMK A01 T02820021  RH  019%=      5-min Rain = 0
KEN1 242021Z 28004KT 28/03 A2982 RMK A01 T02820027  RH  019%=      5-min Rain = 0
KEN1 242022Z 26002KT 28/02 A2982 RMK A01 T02840023  RH  019%=      5-min Rain = 0
KEN1 242023Z 31002KT 29/02 A2982 RMK A01 T02850020  RH  018%=      5-min Rain = 0
KEN1 242024Z 32003KT 29/02 A2982 RMK A01 T02850019  RH  018%=      5-min Rain = 0
KEN1 242025Z 36002KT 29/02 A2982 RMK A01 T02850022  RH  018%=      5-min Rain = 0
KEN1 242026Z 01002KT 29/02 A2982 RMK A01 T02850023  RH  018%=      5-min Rain = 0
KEN1 242027Z 01005KT 29/02 A2982 RMK A01 T02860022  RH  018%=      5-min Rain = 0
KEN1 242028Z 02005KT 29/02 A2982 RMK A01 T02860020  RH  018%=      5-min Rain = 0
KEN1 242029Z 03004KT 28/02 A2982 RMK A01 T02840022  RH  019%=      5-min Rain = 0
KEN1 242030Z 02004KT 28/02 A2982 RMK A01 T02840022  RH  019%=      5-min Rain = 0
KEN1 242031Z 01003KT 28/02 A2982 RMK A01 T02830024  RH  019%=      5-min Rain = 0
KEN1 242032Z 01001KT 28/03 A2982 RMK A01 T02840026  RH  019%=      5-min Rain = 0
KEN1 242033Z 10002KT 29/03 A2982 RMK A01 T02870025  RH  019%=      5-min Rain = 0
KEN1 242034Z 11003KT 29/02 A2982 RMK A01 T02880023  RH  018%=      5-min Rain = 0
KEN1 242035Z 11002KT 29/02 A2982 RMK A01 T02870020  RH  018%=      5-min Rain = 0
KEN1 242036Z 04003KT 29/02 A2982 RMK A01 T02850021  RH  018%=      5-min Rain = 0
KEN1 242037Z 08002KT 28/02 A2981 RMK A01 T02830020  RH  018%=      5-min Rain = 0
KEN1 242038Z 07001KT 28/02 A2981 RMK A01 T02830021  RH  018%=      5-min Rain = 0
KEN1 242039Z 34003KT 28/02 A2981 RMK A01 T02830023  RH  019%=      5-min Rain = 0
KEN1 242040Z 30001KT 28/02 A2981 RMK A01 T02830018  RH  018%=      5-min Rain = 0
KEN1 242041Z 17002KT 28/02 A2981 RMK A01 T02820019  RH  018%=      5-min Rain = 0
KEN1 242042Z 13003KT 28/02 A2981 RMK A01 T02820019  RH  018%=      5-min Rain = 0
KEN1 242043Z 08002KT 28/02 A2981 RMK A01 T02820019  RH  018%=      5-min Rain = 0
KEN1 242044Z 36004KT 28/03 A2981 RMK A01 T02840025  RH  019%=      5-min Rain = 0
KEN1 242045Z 32003KT 29/03 A2981 RMK A01 T02870026  RH  019%=      5-min Rain = 0
KEN1 242046Z 35004KT 29/03 A2981 RMK A01 T02900030  RH  019%=      5-min Rain = 0
KEN1 242047Z 03005KT 30/03 A2981 RMK A01 T02950029  RH  018%=      5-min Rain = 0
KEN1 242048Z 06003KT 30/03 A2981 RMK A01 T02950026  RH  018%=      5-min Rain = 0
KEN1 242049Z 08003KT 30/03 A2981 RMK A01 T02950032  RH  019%=      5-min Rain = 0
KEN1 242050Z 11002KT 30/03 A2981 RMK A01 T02960032  RH  019%=      5-min Rain = 0
KEN1 242051Z 18002KT 30/03 A2981 RMK A01 T02990034  RH  019%=      5-min Rain = 0
KEN1 242052Z 14002KT 30/03 A2981 RMK A01 T03010028  RH  017%=      5-min Rain = 0
KEN1 242053Z 17003KT 30/02 A2981 RMK A01 T03010024  RH  017%=      5-min Rain = 0
KEN1 242054Z 18005KT 30/02 A298 RMK A01 T02980020  RH  017%=      5-min Rain = 0
KEN1 242055Z 19005G10KT 30/03 A298 RMK A01 T02970026  RH  018%=      5-min Rain = 0
KEN1 242056Z 23010KT 30/02 A298 RMK A01 T02980022  RH  017%=      5-min Rain = 0
KEN1 242057Z 23006KT 30/02 A298 RMK A01 T02980016  RH  016%=      5-min Rain = 0
KEN1 242058Z 21004KT 30/02 A298 RMK A01 T02970024  RH  017%=      5-min Rain = 0
KEN1 242059Z 23005KT 30/01 A298 RMK A01 T03000014  RH  016%=      5-min Rain = 0
KEN1 242100Z 25004KT 30/01 A298 RMK A01 T02990013  RH  016%=      5-min Rain = 0
KEN1 242101Z 29002KT 30/01 A298 RMK A01 T02960005  RH  015%=      5-min Rain = 0
KEN1 242102Z 32003KT 30/01 A298 RMK A01 T02950009  RH  016%=      5-min Rain = 0
KEN1 242103Z 33005KT 30/02 A2979 RMK A01 T02970017  RH  017%=      5-min Rain = 0
KEN1 242104Z 33005KT 30/01 A2979 RMK A01 T02980013  RH  016%=      5-min Rain = 0
KEN1 242105Z 30005KT 30/01 A2979 RMK A01 T02990008  RH  015%=      5-min Rain = 0
KEN1 242106Z 27003KT 30/01 A2979 RMK A01 T02970006  RH  015%=      5-min Rain = 0
KEN1 242107Z 25002KT 30/01 A2979 RMK A01 T02970006  RH  015%=      5-min Rain = 0
KEN1 242108Z 23004KT 30/01 A2979 RMK A01 T02980011  RH  016%=      5-min Rain = 0
KEN1 242109Z 20007KT 30/00 A2979 RMK A01 T03010002  RH  014%=      5-min Rain = 0
KEN1 242110Z 19009KT 30/M00 A2979 RMK A01 T03021003  RH  014%=      5-min Rain = 0
KEN1 242111Z 17010KT 30/00 A2979 RMK A01 T03040002  RH  014%=      5-min Rain = 0
KEN1 242112Z 18010KT 31/M00 A2979 RMK A01 T03061004  RH  014%=      5-min Rain = 0
KEN1 242113Z 20010KT 31/M00 A2979 RMK A01 T03051002  RH  014%=      5-min Rain = 0
KEN1 242114Z 22011KT 31/M00 A2979 RMK A01 T03061002  RH  014%=      5-min Rain = 0
KEN1 242115Z 21013KT 31/M01 A2979 RMK A01 T03061010  RH  013%=      5-min Rain = 0
KEN1 242116Z 22014KT 31/M01 A2979 RMK A01 T03061009  RH  013%=      5-min Rain = 0
KEN1 242117Z 21013G20KT 31/M01 A2978 RMK A01 T03081010  RH  013%=      5-min Rain = 0
KEN1 242118Z 21011KT 31/M01 A2979 RMK A01 T03061011  RH  013%=      5-min Rain = 0
KEN1 242119Z 22014KT 31/M00 A2978 RMK A01 T03091004  RH  013%=      5-min Rain = 0
KEN1 242120Z 22013KT 31/M01 A2978 RMK A01 T03121007  RH  013%=      5-min Rain = 0
KEN1 242121Z 21010KT 31/M01 A2978 RMK A01 T03101011  RH  013%=      5-min Rain = 0
KEN1 242122Z 19006KT 31/M02 A2978 RMK A01 T03051015  RH  013%=      5-min Rain = 0
KEN1 242123Z 21008G14KT 30/M01 A2978 RMK A01 T03011014  RH  013%=      5-min Rain = 0
KEN1 242124Z 21015KT 30/M01 A2978 RMK A01 T03031007  RH  014%=      5-min Rain = 0
KEN1 242125Z 23014KT 31/M01 A2978 RMK A01 T03071010  RH  013%=      5-min Rain = 0
KEN1 242126Z 23014KT 31/M01 A2978 RMK A01 T03081011  RH  013%=      5-min Rain = 0
KEN1 242127Z 22014KT 31/M01 A2978 RMK A01 T03091009  RH  013%=      5-min Rain = 0
KEN1 242128Z 21016G23KT 31/M01 A2978 RMK A01 T03081012  RH  013%=      5-min Rain = 0
KEN1 242129Z 20018KT 31/M02 A2977 RMK A01 T03091021  RH  012%=      5-min Rain = 0
KEN1 242130Z 21012KT 31/M03 A2977 RMK A01 T03081025  RH  011%=      5-min Rain = 0
KEN1 242131Z 19012KT 31/M02 A2978 RMK A01 T03071022  RH  012%=      5-min Rain = 0
KEN1 242132Z 19014KT 31/M02 A2977 RMK A01 T03071023  RH  012%=      5-min Rain = 0
KEN1 242133Z 17011KT 31/M02 A2977 RMK A01 T03071023  RH  012%=      5-min Rain = 0
KEN1 242134Z 17009KT 31/M03 A2977 RMK A01 T03081029  RH  011%=      5-min Rain = 0
KEN1 242135Z 18007G15KT 31/M03 A2977 RMK A01 T03081028  RH  011%=      5-min Rain = 0
KEN1 242136Z 17012KT 31/M03 A2977 RMK A01 T03071026  RH  011%=      5-min Rain = 0
KEN1 242137Z 18018KT 31/M03 A2977 RMK A01 T03081028  RH  011%=      5-min Rain = 0
KEN1 242138Z 19018KT 31/M02 A2977 RMK A01 T03121022  RH  011%=      5-min Rain = 0
KEN1 242139Z 20017KT 31/M02 A2977 RMK A01 T03141024  RH  011%=      5-min Rain = 0
KEN1 242140Z 19019KT 31/M02 A2977 RMK A01 T03141024  RH  011%=      5-min Rain = 0
KEN1 242141Z 19020KT 31/M03 A2976 RMK A01 T03141028  RH  011%=      5-min Rain = 0
KEN1 242142Z 20017KT 31/M03 A2977 RMK A01 T03131025  RH  011%=      5-min Rain = 0
KEN1 242143Z 19015KT 31/M02 A2977 RMK A01 T03141023  RH  011%=      5-min Rain = 0
KEN1 242144Z 20017KT 31/M02 A2976 RMK A01 T03141024  RH  011%=      5-min Rain = 0
KEN1 242145Z 21017KT 31/M03 A2976 RMK A01 T03131034  RH  010%=      5-min Rain = 0
KEN1 242146Z 22013KT 31/M04 A2976 RMK A01 T03101035  RH  010%=      5-min Rain = 0
KEN1 242147Z 19013KT 31/M03 A2976 RMK A01 T03081033  RH  011%=      5-min Rain = 0
KEN1 242148Z 19019KT 31/M03 A2976 RMK A01 T03091032  RH  011%=      5-min Rain = 0
KEN1 242149Z 18016KT 31/M03 A2976 RMK A01 T03121032  RH  011%=      5-min Rain = 0
KEN1 242150Z 17019KT 32/M03 A2976 RMK A01 T03151031  RH  011%=      5-min Rain = 0
KEN1 242151Z 18018G23KT 32/M03 A2976 RMK A01 T03151030  RH  011%=      5-min Rain = 0
KEN1 242152Z 17011KT 31/M03 A2976 RMK A01 T03121031  RH  011%=      5-min Rain = 0
KEN1 242153Z 17013KT 31/M03 A2976 RMK A01 T03101032  RH  011%=      5-min Rain = 0
KEN1 242154Z 16014KT 31/M04 A2976 RMK A01 T03101035  RH  011%=      5-min Rain = 0
KEN1 242155Z 17013KT 31/M03 A2975 RMK A01 T03091034  RH  011%=      5-min Rain = 0
KEN1 242156Z 17015KT 31/M03 A2975 RMK A01 T03091032  RH  011%=      5-min Rain = 0
KEN1 242157Z 16016KT 31/M03 A2975 RMK A01 T03101032  RH  011%=      5-min Rain = 0
KEN1 242158Z 17014KT 31/M03 A2975 RMK A01 T03101030  RH  011%=      5-min Rain = 0
KEN1 242159Z 18012KT 31/M03 A2975 RMK A01 T03101030  RH  011%=      5-min Rain = 0
KEN1 242200Z 21015G21KT 31/M03 A2975 RMK A01 T03111026  RH  011%=      5-min Rain = 0
KEN1 242201Z 21018KT 31/M04 A2975 RMK A01 T03141036  RH  010%=      5-min Rain = 0
KEN1 242202Z 21022KT 32/M04 A2975 RMK A01 T03151038  RH  010%=      5-min Rain = 0
KEN1 242203Z 22019KT 31/M04 A2975 RMK A01 T03141038  RH  010%=      5-min Rain = 0
KEN1 242204Z 22014G19KT 31/M04 A2975 RMK A01 T03131036  RH  010%=      5-min Rain = 0
KEN1 242205Z 22014G22KT 31/M04 A2975 RMK A01 T03111036  RH  010%=      5-min Rain = 0
KEN1 242206Z 22017G22KT 31/M04 A2975 RMK A01 T03091036  RH  010%=      5-min Rain = 0
KEN1 242207Z 23016KT 31/M04 A2975 RMK A01 T03101036  RH  010%=      5-min Rain = 0
KEN1 242208Z 23014KT 31/M04 A2975 RMK A01 T03131037  RH  010%=      5-min Rain = 0
KEN1 242209Z 23015G23KT 31/M04 A2975 RMK A01 T03131037  RH  010%=      5-min Rain = 0
KEN1 242210Z 23018KT 31/M04 A2974 RMK A01 T03131035  RH  010%=      5-min Rain = 0
KEN1 242211Z 21015KT 31/M03 A2974 RMK A01 T03131032  RH  011%=      5-min Rain = 0
KEN1 242212Z 19016KT 32/M03 A2974 RMK A01 T03171026  RH  011%=      5-min Rain = 0
KEN1 242213Z 19020KT 32/M03 A2974 RMK A01 T03201028  RH  010%=      5-min Rain = 0
KEN1 242214Z 19017G22KT 32/M03 A2974 RMK A01 T03191028  RH  011%=      5-min Rain = 0
KEN1 242215Z 20021KT 32/M03 A2974 RMK A01 T03201027  RH  011%=      5-min Rain = 0
KEN1 242216Z 21019G24KT 32/M04 A2975 RMK A01 T03211035  RH  010%=      5-min Rain = 0
KEN1 242217Z 21016KT 32/M04 A2975 RMK A01 T03181037  RH  010%=      5-min Rain = 0
KEN1 242218Z 21017KT 32/M04 A2974 RMK A01 T03161037  RH  010%=      5-min Rain = 0
KEN1 242219Z 20015KT 31/M04 A2974 RMK A01 T03141038  RH  010%=      5-min Rain = 0
KEN1 242220Z 23015G20KT 31/M03 A2975 RMK A01 T03131032  RH  011%=      5-min Rain = 0
KEN1 242221Z 23014KT 32/M03 A2975 RMK A01 T03151032  RH  010%=      5-min Rain = 0
KEN1 242222Z 23013KT 31/M03 A2974 RMK A01 T03131033  RH  010%=      5-min Rain = 0
KEN1 242223Z 21010KT 31/M04 A2974 RMK A01 T03101039  RH  010%=      5-min Rain = 0
KEN1 242224Z 21008KT 31/M03 A2974 RMK A01 T03081032  RH  011%=      5-min Rain = 0
KEN1 242225Z 21011G16KT 31/M03 A2974 RMK A01 T03091031  RH  011%=      5-min Rain = 0
KEN1 242226Z 19013KT 31/M03 A2974 RMK A01 T03111029  RH  011%=      5-min Rain = 0
KEN1 242227Z 19012KT 31/M03 A2974 RMK A01 T03141030  RH  011%=      5-min Rain = 0
KEN1 242228Z 17012KT 32/M03 A2974 RMK A01 T03161034  RH  010%=      5-min Rain = 0
KEN1 242229Z 18012KT 31/M04 A2974 RMK A01 T03141039  RH  010%=      5-min Rain = 0
KEN1 242230Z 19009KT 31/M04 A2974 RMK A01 T03111039  RH  010%=      5-min Rain = 0
KEN1 242231Z 19011KT 31/M04 A2973 RMK A01 T03091038  RH  010%=      5-min Rain = 0
KEN1 242232Z 21011KT 31/M04 A2974 RMK A01 T03101035  RH  011%=      5-min Rain = 0
KEN1 242233Z 19010KT 31/M04 A2973 RMK A01 T03121037  RH  010%=      5-min Rain = 0
KEN1 242234Z 21010KT 31/M04 A2973 RMK A01 T03101038  RH  010%=      5-min Rain = 0
KEN1 242235Z 22014KT 31/M03 A2973 RMK A01 T03111033  RH  011%=      5-min Rain = 0
KEN1 242236Z 21017KT 31/M03 A2973 RMK A01 T03131033  RH  010%=      5-min Rain = 0
KEN1 242237Z 22018KT 32/M04 A2973 RMK A01 T03151041  RH  010%=      5-min Rain = 0
KEN1 242238Z 21014G20KT 31/M05 A2973 RMK A01 T03141045  RH  010%=      5-min Rain = 0
KEN1 242239Z 21013KT 31/M05 A2973 RMK A01 T03101046  RH  010%=      5-min Rain = 0
KEN1 242240Z 20011KT 31/M05 A2973 RMK A01 T03091046  RH  010%=      5-min Rain = 0
KEN1 242241Z 21011KT 31/M05 A2973 RMK A01 T03101045  RH  010%=      5-min Rain = 0
KEN1 242242Z 23011KT 31/M04 A2973 RMK A01 T03111040  RH  010%=      5-min Rain = 0
KEN1 242243Z 20015KT 31/M04 A2973 RMK A01 T03131039  RH  010%=      5-min Rain = 0
KEN1 242244Z 20017KT 32/M04 A2973 RMK A01 T03151040  RH  010%=      5-min Rain = 0
KEN1 242245Z 20015KT 31/M04 A2973 RMK A01 T03141042  RH  010%=      5-min Rain = 0
KEN1 242246Z 21015KT 31/M04 A2973 RMK A01 T03121042  RH  010%=      5-min Rain = 0
KEN1 242247Z 21013KT 31/M04 A2973 RMK A01 T03111039  RH  010%=      5-min Rain = 0
KEN1 242248Z 22017G23KT 31/M04 A2973 RMK A01 T03121036  RH  010%=      5-min Rain = 0
KEN1 242249Z 22015KT 31/M04 A2973 RMK A01 T03131039  RH  010%=      5-min Rain = 0
KEN1 242250Z 22014G20KT 31/M04 A2973 RMK A01 T03111040  RH  010%=      5-min Rain = 0
KEN1 242251Z 22014KT 31/M04 A2972 RMK A01 T03111041  RH  010%=      5-min Rain = 0
KEN1 242252Z 23013KT 31/M04 A2972 RMK A01 T03111043  RH  010%=      5-min Rain = 0
KEN1 242253Z 23013KT 31/M04 A2972 RMK A01 T03111041  RH  010%=      5-min Rain = 0
KEN1 242254Z 23014G20KT 31/M04 A2972 RMK A01 T03131035  RH  010%=      5-min Rain = 0
KEN1 242255Z 22020KT 31/M04 A2972 RMK A01 T03141041  RH  010%=      5-min Rain = 0
KEN1 242256Z 22020KT 31/M04 A2972 RMK A01 T03141044  RH  010%=      5-min Rain = 0
KEN1 242257Z 22017KT 31/M04 A2972 RMK A01 T03131043  RH  010%=      5-min Rain = 0
KEN1 242258Z 22017KT 31/M05 A2972 RMK A01 T03121045  RH  010%=      5-min Rain = 0
KEN1 242259Z 22016KT 31/M04 A2972 RMK A01 T03121044  RH  010%=      5-min Rain = 0
KEN1 242300Z 22018KT 31/M05 A2972 RMK A01 T03111045  RH  010%=      5-min Rain = 0
KEN1 242301Z 21017KT 31/M04 A2972 RMK A01 T03121041  RH  010%=      5-min Rain = 0
KEN1 242302Z 21019G24KT 31/M04 A2972 RMK A01 T03131041  RH  010%=      5-min Rain = 0
KEN1 242303Z 21019KT 31/M04 A2972 RMK A01 T03141042  RH  010%=      5-min Rain = 0
KEN1 242304Z 21017KT 31/M04 A2972 RMK A01 T03141042  RH  010%=      5-min Rain = 0
KEN1 242305Z 20016KT 31/M04 A2972 RMK A01 T03131044  RH  010%=      5-min Rain = 0
KEN1 242306Z 21011KT 31/M05 A2972 RMK A01 T03111047  RH  010%=      5-min Rain = 0
KEN1 242307Z 20013KT 31/M05 A2972 RMK A01 T03091049  RH  009%=      5-min Rain = 0
KEN1 242308Z 19018KT 31/M04 A2972 RMK A01 T03091044  RH  010%=      5-min Rain = 0
KEN1 242309Z 19017KT 31/M05 A2972 RMK A01 T03111047  RH  010%=      5-min Rain = 0
KEN1 242310Z 20015G21KT 31/M05 A2972 RMK A01 T03111046  RH  010%=      5-min Rain = 0
KEN1 242311Z 19013KT 31/M05 A2972 RMK A01 T03101046  RH  010%=      5-min Rain = 0
KEN1 242312Z 19009KT 31/M05 A2972 RMK A01 T03091047  RH  010%=      5-min Rain = 0
KEN1 242313Z 19009KT 31/M05 A2972 RMK A01 T03091048  RH  010%=      5-min Rain = 0
KEN1 242314Z 21009KT 31/M05 A2971 RMK A01 T03081045  RH  010%=      5-min Rain = 0
KEN1 242315Z 21009KT 31/M04 A2971 RMK A01 T03091042  RH  010%=      5-min Rain = 0
KEN1 242316Z 21009KT 31/M04 A2971 RMK A01 T03101042  RH  010%=      5-min Rain = 0
KEN1 242317Z 20009G14KT 31/M04 A2971 RMK A01 T03111040  RH  010%=      5-min Rain = 0
KEN1 242318Z 20011KT 31/M04 A2971 RMK A01 T03121042  RH  010%=      5-min Rain = 0
KEN1 242319Z 20012KT 31/M04 A2971 RMK A01 T03121041  RH  010%=      5-min Rain = 0
KEN1 242320Z 22011KT 31/M04 A2971 RMK A01 T03141035  RH  010%=      5-min Rain = 0
KEN1 242321Z 21013KT 32/M04 A2971 RMK A01 T03161037  RH  010%=      5-min Rain = 0
KEN1 242322Z 21018KT 32/M04 A297 RMK A01 T03151043  RH  010%=      5-min Rain = 0
KEN1 242323Z 22016G21KT 31/M04 A297 RMK A01 T03131041  RH  010%=      5-min Rain = 0
KEN1 242324Z 22015G20KT 31/M04 A2971 RMK A01 T03121044  RH  010%=      5-min Rain = 0
KEN1 242325Z 21015KT 31/M04 A297 RMK A01 T03111044  RH  010%=      5-min Rain = 0
KEN1 242326Z 22012KT 31/M04 A297 RMK A01 T03111041  RH  010%=      5-min Rain = 0
KEN1 242327Z 21010KT 31/M04 A297 RMK A01 T03121039  RH  010%=      5-min Rain = 0
KEN1 242328Z 21009KT 31/M04 A297 RMK A01 T03131040  RH  010%=      5-min Rain = 0
KEN1 242329Z 20012KT 31/M04 A297 RMK A01 T03131039  RH  010%=      5-min Rain = 0
KEN1 242330Z 20012KT 31/M04 A297 RMK A01 T03131044  RH  010%=      5-min Rain = 0
KEN1 242331Z 22011KT 31/M05 A297 RMK A01 T03121045  RH  010%=      5-min Rain = 0
KEN1 242332Z 21010KT 31/M04 A297 RMK A01 T03111044  RH  010%=      5-min Rain = 0
KEN1 242333Z 19012KT 31/M04 A297 RMK A01 T03111042  RH  010%=      5-min Rain = 0
KEN1 242334Z 19014KT 31/M04 A297 RMK A01 T03111042  RH  010%=      5-min Rain = 0
KEN1 242335Z 18016KT 31/M04 A297 RMK A01 T03131043  RH  010%=      5-min Rain = 0
KEN1 242336Z 19013KT 31/M05 A297 RMK A01 T03131045  RH  010%=      5-min Rain = 0
KEN1 242337Z 21012KT 31/M05 A297 RMK A01 T03111047  RH  010%=      5-min Rain = 0
KEN1 242338Z 21011KT 31/M04 A297 RMK A01 T03101041  RH  010%=      5-min Rain = 0
KEN1 242339Z 21013G20KT 31/M04 A297 RMK A01 T03111040  RH  010%=      5-min Rain = 0
KEN1 242340Z 20015G20KT 31/M04 A297 RMK A01 T03121040  RH  010%=      5-min Rain = 0
KEN1 242341Z 20016KT 31/M04 A2969 RMK A01 T03131043  RH  010%=      5-min Rain = 0
KEN1 242342Z 20013KT 31/M04 A297 RMK A01 T03121044  RH  010%=      5-min Rain = 0
KEN1 242343Z 19013KT 31/M04 A2969 RMK A01 T03121039  RH  010%=      5-min Rain = 0
KEN1 242344Z 20014KT 31/M04 A2969 RMK A01 T03131042  RH  010%=      5-min Rain = 0
KEN1 242345Z 20013KT 31/M04 A2969 RMK A01 T03131042  RH  010%=      5-min Rain = 0
KEN1 242346Z 20015KT 31/M05 A2969 RMK A01 T03111046  RH  010%=      5-min Rain = 0
KEN1 242347Z 19015KT 31/M05 A2969 RMK A01 T03091048  RH  010%=      5-min Rain = 0
KEN1 242348Z 20017KT 31/M05 A2969 RMK A01 T03081045  RH  010%=      5-min Rain = 0
KEN1 242349Z 20016KT 31/M05 A2969 RMK A01 T03091045  RH  010%=      5-min Rain = 0
KEN1 242350Z 20016G21KT 31/M05 A2969 RMK A01 T03091045  RH  010%=      5-min Rain = 0
KEN1 242351Z 21018KT 31/M05 A2969 RMK A01 T03091045  RH  010%=      5-min Rain = 0
KEN1 242352Z 20017KT 31/M04 A2969 RMK A01 T03091044  RH  010%=      5-min Rain = 0
KEN1 242353Z 21015KT 31/M04 A2969 RMK A01 T03091044  RH  010%=      5-min Rain = 0
KEN1 242354Z 21011KT 31/M04 A2969 RMK A01 T03081037  RH  010%=      5-min Rain = 0
KEN1 242355Z 20012KT 31/M04 A2969 RMK A01 T03101036  RH  010%=      5-min Rain = 0
KEN1 242356Z 21014KT 31/M04 A2969 RMK A01 T03111041  RH  010%=      5-min Rain = 0
KEN1 242357Z 21013KT 31/M04 A2969 RMK A01 T03101042  RH  010%=      5-min Rain = 0
KEN1 242358Z 22009KT 31/M04 A2969 RMK A01 T03091036  RH  010%=      5-min Rain = 0
KEN1 242359Z 20011KT 31/M04 A2969 RMK A01 T03101035  RH  011%=      5-min Rain = 0
KEN1 250000Z 20013KT 31/M04 A2969 RMK A01 T03111040  RH  010%=      5-min Rain = 0
KEN1 250001Z 20013KT 31/M04 A2969 RMK A01 T03101041  RH  010%=      5-min Rain = 0
KEN1 250002Z 20014KT 31/M04 A2969 RMK A01 T03091041  RH  010%=      5-min Rain = 0
KEN1 250003Z 20014KT 31/M04 A2969 RMK A01 T03091041  RH  010%=      5-min Rain = 0
KEN1 250004Z 22015KT 31/M04 A2969 RMK A01 T03091040  RH  010%=      5-min Rain = 0
KEN1 250005Z 22014KT 31/M04 A2969 RMK A01 T03081037  RH  010%=      5-min Rain = 0
KEN1 250006Z 22014KT 31/M04 A2969 RMK A01 T03091040  RH  010%=      5-min Rain = 0
KEN1 250007Z 21012KT 31/M04 A2969 RMK A01 T03081037  RH  010%=      5-min Rain = 0
KEN1 250008Z 20015KT 31/M04 A2969 RMK A01 T03081037  RH  010%=      5-min Rain = 0
KEN1 250009Z 20015KT 31/M04 A2969 RMK A01 T03081043  RH  010%=      5-min Rain = 0
KEN1 250010Z 20014KT 31/M04 A2969 RMK A01 T03071043  RH  010%=      5-min Rain = 0
KEN1 250011Z 20012KT 31/M04 A2969 RMK A01 T03061041  RH  010%=      5-min Rain = 0
KEN1 250012Z 20014KT 31/M04 A2969 RMK A01 T03061042  RH  010%=      5-min Rain = 0
KEN1 250013Z 21013KT 31/M04 A2969 RMK A01 T03061042  RH  010%=      5-min Rain = 0
KEN1 250014Z 22012KT 31/M04 A2969 RMK A01 T03061039  RH  010%=      5-min Rain = 0
KEN1 250015Z 23013KT 31/M04 A2969 RMK A01 T03061041  RH  010%=      5-min Rain = 0
KEN1 250016Z 22011KT 31/M04 A2969 RMK A01 T03051040  RH  010%=      5-min Rain = 0
KEN1 250017Z 21012KT 31/M04 A2969 RMK A01 T03051038  RH  011%=      5-min Rain = 0
KEN1 250018Z 21010KT 30/M04 A2969 RMK A01 T03041036  RH  011%=      5-min Rain = 0
KEN1 250019Z 21012G17KT 30/M04 A2969 RMK A01 T03031037  RH  011%=      5-min Rain = 0
KEN1 250020Z 19014KT 30/M04 A2969 RMK A01 T03011043  RH  010%=      5-min Rain = 0
KEN1 250021Z 19015KT 30/M05 A2969 RMK A01 T02991046  RH  010%=      5-min Rain = 0
KEN1 250022Z 19012KT 30/M05 A2969 RMK A01 T02981047  RH  010%=      5-min Rain = 0
KEN1 250023Z 18014KT 30/M05 A2969 RMK A01 T02971046  RH  010%=      5-min Rain = 0
KEN1 250024Z 19012G17KT 30/M05 A2969 RMK A01 T02961048  RH  010%=      5-min Rain = 0
KEN1 250025Z 18008KT 30/M05 A2969 RMK A01 T02961050  RH  010%=      5-min Rain = 0
KEN1 250026Z 20008KT 30/M05 A2969 RMK A01 T02971049  RH  010%=      5-min Rain = 0
KEN1 250027Z 19008KT 30/M05 A2969 RMK A01 T02981045  RH  010%=      5-min Rain = 0
KEN1 250028Z 18010KT 30/M04 A2969 RMK A01 T02981044  RH  011%=      5-min Rain = 0
KEN1 250029Z 19012KT 30/M04 A2969 RMK A01 T02981043  RH  011%=      5-min Rain = 0
KEN1 250030Z 20010KT 30/M04 A2969 RMK A01 T02981042  RH  011%=      5-min Rain = 0
KEN1 250031Z 20009KT 30/M04 A2969 RMK A01 T02991044  RH  010%=      5-min Rain = 0
KEN1 250032Z 20010KT 30/M04 A2969 RMK A01 T02991040  RH  011%=      5-min Rain = 0
KEN1 250033Z 20008KT 30/M04 A2969 RMK A01 T02991040  RH  011%=      5-min Rain = 0
KEN1 250034Z 20008KT 30/M04 A2969 RMK A01 T02991040  RH  011%=      5-min Rain = 0
KEN1 250035Z 19007KT 30/M04 A2969 RMK A01 T03001042  RH  011%=      5-min Rain = 0
KEN1 250036Z 19008KT 30/M04 A2969 RMK A01 T03011038  RH  011%=      5-min Rain = 0
KEN1 250037Z 19006KT 30/M04 A2969 RMK A01 T03021037  RH  011%=      5-min Rain = 0
KEN1 250038Z 19007KT 30/M03 A2969 RMK A01 T03021034  RH  011%=      5-min Rain = 0
KEN1 250039Z 18008KT 30/M04 A2969 RMK A01 T03021038  RH  011%=      5-min Rain = 0
KEN1 250040Z 18009KT 30/M04 A2969 RMK A01 T03011041  RH  011%=      5-min Rain = 0
KEN1 250041Z 19011KT 30/M04 A2969 RMK A01 T03001041  RH  011%=      5-min Rain = 0
KEN1 250042Z 19010KT 30/M04 A2969 RMK A01 T03001039  RH  011%=      5-min Rain = 0
KEN1 250043Z 17011KT 30/M04 A2969 RMK A01 T03001038  RH  011%=      5-min Rain = 0
KEN1 250044Z 18014KT 30/M04 A2969 RMK A01 T03001041  RH  011%=      5-min Rain = 0
KEN1 250045Z 20013KT 30/M04 A2969 RMK A01 T03011039  RH  011%=      5-min Rain = 0
KEN1 250046Z 20012KT 30/M04 A2969 RMK A01 T03011039  RH  011%=      5-min Rain = 0
KEN1 250047Z 19012KT 30/M04 A2969 RMK A01 T03011039  RH  011%=      5-min Rain = 0
KEN1 250048Z 19010KT 30/M04 A2969 RMK A01 T03011039  RH  011%=      5-min Rain = 0
KEN1 250049Z 19012KT 30/M04 A2969 RMK A01 T03011036  RH  011%=      5-min Rain = 0
KEN1 250050Z 20014KT 30/M04 A2969 RMK A01 T03011040  RH  011%=      5-min Rain = 0
KEN1 250051Z 20012KT 30/M04 A2969 RMK A01 T03001041  RH  011%=      5-min Rain = 0
KEN1 250052Z 20011KT 30/M04 A2969 RMK A01 T02991039  RH  011%=      5-min Rain = 0
KEN1 250053Z 19010KT 30/M04 A2969 RMK A01 T02981038  RH  011%=      5-min Rain = 0
KEN1 250054Z 19014KT 30/M04 A2969 RMK A01 T02981037  RH  011%=      5-min Rain = 0
KEN1 250055Z 19013KT 30/M04 A2969 RMK A01 T02971044  RH  011%=      5-min Rain = 0
KEN1 250056Z 20011KT 30/M04 A2968 RMK A01 T02981043  RH  011%=      5-min Rain = 0
KEN1 250057Z 20014KT 30/M04 A2968 RMK A01 T02971041  RH  011%=      5-min Rain = 0
KEN1 250058Z 20013KT 30/M04 A2968 RMK A01 T02971042  RH  011%=      5-min Rain = 0
KEN1 250059Z 20013KT 30/M04 A2968 RMK A01 T02971041  RH  011%=      5-min Rain = 0
KEN1 250100Z 20013KT 30/M04 A2968 RMK A01 T02961041  RH  011%=      5-min Rain = 0
KEN1 250101Z 20013KT 30/M04 A2968 RMK A01 T02961041  RH  011%=      5-min Rain = 0
KEN1 250102Z 20012KT 30/M04 A2968 RMK A01 T02961042  RH  011%=      5-min Rain = 0
KEN1 250103Z 21010KT 30/M04 A2968 RMK A01 T02961040  RH  011%=      5-min Rain = 0
KEN1 250104Z 20009KT 30/M04 A2968 RMK A01 T02951038  RH  011%=      5-min Rain = 0
KEN1 250105Z 19010KT 29/M04 A2968 RMK A01 T02941038  RH  011%=      5-min Rain = 0
KEN1 250106Z 19009KT 29/M04 A2969 RMK A01 T02941039  RH  011%=      5-min Rain = 0
KEN1 250107Z 19009KT 29/M04 A2969 RMK A01 T02931036  RH  012%=      5-min Rain = 0
KEN1 250108Z 19011KT 29/M04 A2969 RMK A01 T02921037  RH  011%=      5-min Rain = 0
KEN1 250109Z 19010KT 29/M04 A2968 RMK A01 T02911040  RH  011%=      5-min Rain = 0
KEN1 250110Z 20009KT 29/M04 A2968 RMK A01 T02901038  RH  012%=      5-min Rain = 0
KEN1 250111Z 20008KT 29/M04 A2968 RMK A01 T02881036  RH  012%=      5-min Rain = 0
KEN1 250112Z 19008KT 29/M04 A2968 RMK A01 T02871037  RH  012%=      5-min Rain = 0
KEN1 250113Z 20009KT 29/M04 A2968 RMK A01 T02861035  RH  012%=      5-min Rain = 0
KEN1 250114Z 19008KT 29/M04 A2968 RMK A01 T02851038  RH  012%=      5-min Rain = 0
KEN1 250115Z 19009KT 28/M04 A2968 RMK A01 T02841036  RH  012%=      5-min Rain = 0
KEN1 250116Z 19009KT 28/M04 A2968 RMK A01 T02841039  RH  012%=      5-min Rain = 0
KEN1 250117Z 19008KT 28/M04 A2968 RMK A01 T02841039  RH  012%=      5-min Rain = 0
KEN1 250118Z 19009G14KT 28/M04 A2968 RMK A01 T02841037  RH  012%=      5-min Rain = 0
KEN1 250119Z 19012KT 28/M04 A2968 RMK A01 T02831041  RH  012%=      5-min Rain = 0
KEN1 250120Z 19009KT 28/M04 A2968 RMK A01 T02841042  RH  012%=      5-min Rain = 0
KEN1 250121Z 18008KT 28/M04 A2969 RMK A01 T02841040  RH  012%=      5-min Rain = 0
KEN1 250122Z 19008KT 28/M04 A2969 RMK A01 T02841038  RH  012%=      5-min Rain = 0
KEN1 250123Z 20007KT 28/M04 A2969 RMK A01 T02831038  RH  012%=      5-min Rain = 0
KEN1 250124Z 19006KT 28/M04 A2969 RMK A01 T02811036  RH  012%=      5-min Rain = 0
KEN1 250125Z 19006KT 28/M04 A2969 RMK A01 T02801035  RH  013%=      5-min Rain = 0
KEN1 250126Z 19006KT 28/M03 A2969 RMK A01 T02791034  RH  013%=      5-min Rain = 0
KEN1 250127Z 19007KT 28/M03 A2968 RMK A01 T02771034  RH  013%=      5-min Rain = 0
KEN1 250128Z 19006KT 28/M04 A2968 RMK A01 T02761035  RH  013%=      5-min Rain = 0
KEN1 250129Z 19008KT 28/M04 A2968 RMK A01 T02761036  RH  013%=      5-min Rain = 0
KEN1 250130Z 18010KT 28/M04 A2968 RMK A01 T02761035  RH  013%=      5-min Rain = 0
KEN1 250131Z 19011KT 28/M04 A2968 RMK A01 T02761036  RH  013%=      5-min Rain = 0
KEN1 250132Z 19011KT 28/M04 A2968 RMK A01 T02751038  RH  013%=      5-min Rain = 0
KEN1 250133Z 19011KT 28/M04 A2968 RMK A01 T02751037  RH  013%=      5-min Rain = 0
KEN1 250134Z 19011KT 28/M04 A2968 RMK A01 T02751037  RH  013%=      5-min Rain = 0
KEN1 250135Z 20011KT 28/M04 A2968 RMK A01 T02751038  RH  013%=      5-min Rain = 0
KEN1 250136Z 20010KT 27/M04 A2968 RMK A01 T02741039  RH  013%=      5-min Rain = 0
KEN1 250137Z 20010KT 27/M04 A2968 RMK A01 T02741039  RH  013%=      5-min Rain = 0
KEN1 250138Z 20010KT 27/M04 A2968 RMK A01 T02741038  RH  013%=      5-min Rain = 0
KEN1 250139Z 20009KT 27/M04 A2968 RMK A01 T02731038  RH  013%=      5-min Rain = 0
KEN1 250140Z 20009KT 27/M04 A2968 RMK A01 T02721038  RH  013%=      5-min Rain = 0
KEN1 250141Z 21009KT 27/M04 A2968 RMK A01 T02711037  RH  013%=      5-min Rain = 0
KEN1 250142Z 21008KT 27/M04 A2968 RMK A01 T02701037  RH  013%=      5-min Rain = 0
KEN1 250143Z 21007KT 27/M04 A2968 RMK A01 T02691035  RH  013%=      5-min Rain = 0
KEN1 250144Z 20007KT 27/M04 A2968 RMK A01 T02671035  RH  014%=      5-min Rain = 0
KEN1 250145Z 20006KT 27/M04 A2968 RMK A01 T02651035  RH  014%=      5-min Rain = 0
KEN1 250146Z 20007KT 26/M04 A2968 RMK A01 T02631035  RH  014%=      5-min Rain = 0
KEN1 250147Z 20007KT 26/M04 A2968 RMK A01 T02621036  RH  014%=      5-min Rain = 0
KEN1 250148Z 20008KT 26/M04 A2968 RMK A01 T02621036  RH  014%=      5-min Rain = 0
KEN1 250149Z 20008KT 26/M04 A2968 RMK A01 T02611036  RH  014%=      5-min Rain = 0
KEN1 250150Z 20008KT 26/M04 A2968 RMK A01 T02601036  RH  014%=      5-min Rain = 0
KEN1 250151Z 20008KT 26/M04 A2968 RMK A01 T02591036  RH  014%=      5-min Rain = 0
KEN1 250152Z 20008KT 26/M04 A2968 RMK A01 T02581035  RH  014%=      5-min Rain = 0
KEN1 250153Z 21008KT 26/M03 A2968 RMK A01 T02561034  RH  014%=      5-min Rain = 0
KEN1 250154Z 21007KT 26/M03 A2968 RMK A01 T02551033  RH  015%=      5-min Rain = 0
KEN1 250155Z 21007KT 25/M03 A2968 RMK A01 T02531034  RH  015%=      5-min Rain = 0
KEN1 250156Z 22007KT 25/M03 A2968 RMK A01 T02521034  RH  015%=      5-min Rain = 0
KEN1 250157Z 22006KT 25/M03 A2968 RMK A01 T02521034  RH  015%=      5-min Rain = 0
KEN1 250158Z 22006KT 25/M04 A2968 RMK A01 T02511035  RH  015%=      5-min Rain = 0
KEN1 250159Z 22006KT 25/M04 A2968 RMK A01 T02501035  RH  015%=      5-min Rain = 0
KEN1 250200Z 23005KT 25/M04 A2968 RMK A01 T02491035  RH  015%=      5-min Rain = 0
KEN1 250201Z 24005KT 25/M03 A2968 RMK A01 T02491034  RH  015%=      5-min Rain = 0
KEN1 250202Z 24005KT 25/M03 A2968 RMK A01 T02481033  RH  015%=      5-min Rain = 0
KEN1 250203Z 25005KT 25/M03 A2968 RMK A01 T02471032  RH  015%=      5-min Rain = 0
KEN1 250204Z 26006KT 25/M03 A2968 RMK A01 T02461033  RH  015%=      5-min Rain = 0
KEN1 250205Z 26006KT 25/M03 A2968 RMK A01 T02451032  RH  016%=      5-min Rain = 0
KEN1 250206Z 25006KT 24/M03 A2968 RMK A01 T02441032  RH  016%=      5-min Rain = 0
KEN1 250207Z 25007KT 24/M03 A2968 RMK A01 T02441033  RH  016%=      5-min Rain = 0
KEN1 250208Z 24006KT 25/M03 A2969 RMK A01 T02451033  RH  016%=      5-min Rain = 0
KEN1 250209Z 25006KT 25/M03 A2969 RMK A01 T02451033  RH  016%=      5-min Rain = 0
KEN1 250210Z 24007KT 25/M03 A2969 RMK A01 T02451033  RH  016%=      5-min Rain = 0
KEN1 250211Z 24007KT 25/M03 A2969 RMK A01 T02451033  RH  016%=      5-min Rain = 0
KEN1 250212Z 24007KT 24/M03 A2969 RMK A01 T02441033  RH  016%=      5-min Rain = 0
KEN1 250213Z 24007KT 24/M03 A2969 RMK A01 T02431032  RH  016%=      5-min Rain = 0
KEN1 250214Z 23007KT 24/M03 A2969 RMK A01 T02421032  RH  016%=      5-min Rain = 0
KEN1 250215Z 23007KT 24/M03 A2969 RMK A01 T02411032  RH  016%=      5-min Rain = 0
KEN1 250216Z 23007KT 24/M03 A2969 RMK A01 T02411031  RH  016%=      5-min Rain = 0
KEN1 250217Z 23007KT 24/M03 A2969 RMK A01 T02391031  RH  016%=      5-min Rain = 0
KEN1 250218Z 23007KT 24/M03 A297 RMK A01 T02391030  RH  017%=      5-min Rain = 0
KEN1 250219Z 23006KT 24/M03 A297 RMK A01 T02371030  RH  017%=      5-min Rain = 0
KEN1 250220Z 23006KT 24/M03 A297 RMK A01 T02371031  RH  017%=      5-min Rain = 0
KEN1 250221Z 23005KT 24/M03 A297 RMK A01 T02371031  RH  017%=      5-min Rain = 0
KEN1 250222Z 23004KT 24/M03 A297 RMK A01 T02361032  RH  017%=      5-min Rain = 0
KEN1 250223Z 22005KT 24/M03 A297 RMK A01 T02371033  RH  016%=      5-min Rain = 0
KEN1 250224Z 22005KT 24/M03 A297 RMK A01 T02381033  RH  016%=      5-min Rain = 0
KEN1 250225Z 23004KT 24/M03 A297 RMK A01 T02381033  RH  016%=      5-min Rain = 0
KEN1 250226Z 24004KT 24/M03 A2971 RMK A01 T02381033  RH  016%=      5-min Rain = 0
KEN1 250227Z 24005KT 24/M03 A2971 RMK A01 T02381032  RH  016%=      5-min Rain = 0
KEN1 250228Z 25004KT 24/M03 A2971 RMK A01 T02381033  RH  016%=      5-min Rain = 0
KEN1 250229Z 24005KT 24/M03 A2971 RMK A01 T02391034  RH  016%=      5-min Rain = 0
KEN1 250230Z 25004KT 24/M03 A2971 RMK A01 T02401034  RH  016%=      5-min Rain = 0
KEN1 250231Z 24004KT 24/M03 A2971 RMK A01 T02411033  RH  016%=      5-min Rain = 0
KEN1 250232Z 24004KT 24/M03 A2971 RMK A01 T02411032  RH  016%=      5-min Rain = 0
KEN1 250233Z 24004KT 24/M03 A2971 RMK A01 T02401033  RH  016%=      5-min Rain = 0
KEN1 250234Z 25004KT 24/M03 A2971 RMK A01 T02401032  RH  016%=      5-min Rain = 0
KEN1 250235Z 24004KT 24/M03 A2971 RMK A01 T02391032  RH  016%=      5-min Rain = 0
KEN1 250236Z 24004KT 24/M03 A2971 RMK A01 T02381032  RH  016%=      5-min Rain = 0
KEN1 250237Z 24004KT 24/M03 A2971 RMK A01 T02371033  RH  016%=      5-min Rain = 0
KEN1 250238Z 24004KT 24/M03 A2971 RMK A01 T02371034  RH  016%=      5-min Rain = 0
KEN1 250239Z 24005KT 24/M03 A2971 RMK A01 T02381033  RH  016%=      5-min Rain = 0
KEN1 250240Z 24005KT 24/M03 A2971 RMK A01 T02371032  RH  016%=      5-min Rain = 0
KEN1 250241Z 24005KT 24/M03 A2971 RMK A01 T02361032  RH  017%=      5-min Rain = 0
KEN1 250242Z 24004KT 24/M03 A2971 RMK A01 T02351032  RH  017%=      5-min Rain = 0
KEN1 250243Z 24005KT 23/M03 A2971 RMK A01 T02341031  RH  017%=      5-min Rain = 0
KEN1 250244Z 25005KT 23/M03 A2971 RMK A01 T02341034  RH  017%=      5-min Rain = 0
KEN1 250245Z 24005KT 24/M04 A2971 RMK A01 T02361035  RH  016%=      5-min Rain = 0
KEN1 250246Z 23005KT 24/M03 A2971 RMK A01 T02371033  RH  016%=      5-min Rain = 0
KEN1 250247Z 23005KT 24/M03 A2971 RMK A01 T02371033  RH  016%=      5-min Rain = 0
KEN1 250248Z 23005KT 24/M03 A2971 RMK A01 T02361033  RH  016%=      5-min Rain = 0
KEN1 250249Z 23006KT 24/M03 A2971 RMK A01 T02361032  RH  017%=      5-min Rain = 0
KEN1 250250Z 22006KT 24/M03 A2971 RMK A01 T02351031  RH  017%=      5-min Rain = 0
KEN1 250251Z 22007KT 23/M03 A2971 RMK A01 T02341031  RH  017%=      5-min Rain = 0
KEN1 250252Z 23006KT 23/M03 A2971 RMK A01 T02311028  RH  018%=      5-min Rain = 0
KEN1 250253Z 32006KT 23/M03 A2971 RMK A01 T02271026  RH  018%=      5-min Rain = 0
KEN1 250254Z 30006KT 22/M03 A2971 RMK A01 T02241029  RH  018%=      5-min Rain = 0
KEN1 250255Z 29005KT 23/M03 A2971 RMK A01 T02291034  RH  017%=      5-min Rain = 0
KEN1 250256Z 27005KT 23/M03 A2971 RMK A01 T02331032  RH  017%=      5-min Rain = 0
KEN1 250257Z 26004KT 23/M03 A2971 RMK A01 T02341032  RH  017%=      5-min Rain = 0
KEN1 250258Z 25005KT 24/M03 A2971 RMK A01 T02351032  RH  017%=      5-min Rain = 0
KEN1 250259Z 26005KT 24/M03 A2971 RMK A01 T02351032  RH  017%=      5-min Rain = 0
KEN1 250300Z 27004KT 24/M03 A2972 RMK A01 T02351031  RH  017%=      5-min Rain = 0
KEN1 250301Z 27003KT 23/M03 A2972 RMK A01 T02331030  RH  017%=      5-min Rain = 0
KEN1 250302Z 28004KT 23/M03 A2972 RMK A01 T02311032  RH  017%=      5-min Rain = 0
KEN1 250303Z 27004KT 23/M03 A2972 RMK A01 T02311033  RH  017%=      5-min Rain = 0
KEN1 250304Z 26004KT 23/M03 A2972 RMK A01 T02321033  RH  017%=      5-min Rain = 0
KEN1 250305Z 27004KT 23/M03 A2972 RMK A01 T02321034  RH  017%=      5-min Rain = 0
KEN1 250306Z 27004KT 23/M03 A2972 RMK A01 T02331034  RH  017%=      5-min Rain = 0
KEN1 250307Z 25004KT 23/M03 A2972 RMK A01 T02341034  RH  017%=      5-min Rain = 0
KEN1 250308Z 22002KT 23/M03 A2972 RMK A01 T02331030  RH  017%=      5-min Rain = 0
KEN1 250309Z 25002KT 23/M03 A2972 RMK A01 T02311031  RH  017%=      5-min Rain = 0
KEN1 250310Z 25002KT 23/M03 A2973 RMK A01 T02301033  RH  017%=      5-min Rain = 0
KEN1 250311Z 23003KT 23/M03 A2973 RMK A01 T02291033  RH  017%=      5-min Rain = 0
KEN1 250312Z 25003KT 23/M03 A2973 RMK A01 T02291032  RH  017%=      5-min Rain = 0
KEN1 250313Z 23002KT 23/M03 A2973 RMK A01 T02281034  RH  017%=      5-min Rain = 0
KEN1 250314Z 22003KT 23/M04 A2973 RMK A01 T02291036  RH  017%=      5-min Rain = 0
KEN1 250315Z 24003KT 23/M04 A2973 RMK A01 T02301036  RH  017%=      5-min Rain = 0
KEN1 250316Z 27005KT 23/M04 A2973 RMK A01 T02321037  RH  016%=      5-min Rain = 0
KEN1 250317Z 28004KT 23/M04 A2973 RMK A01 T02341038  RH  016%=      5-min Rain = 0
KEN1 250318Z 26003KT 24/M04 A2973 RMK A01 T02361035  RH  016%=      5-min Rain = 0
KEN1 250319Z 26003KT 24/M03 A2973 RMK A01 T02361033  RH  016%=      5-min Rain = 0
KEN1 250320Z 25003KT 24/M04 A2973 RMK A01 T02361037  RH  016%=      5-min Rain = 0
KEN1 250321Z 23003KT 24/M04 A2973 RMK A01 T02371038  RH  016%=      5-min Rain = 0
KEN1 250322Z 23002KT 24/M04 A2973 RMK A01 T02381037  RH  016%=      5-min Rain = 0
KEN1 250323Z 23002KT 24/M03 A2973 RMK A01 T02381034  RH  016%=      5-min Rain = 0
KEN1 250324Z 25002KT 24/M03 A2973 RMK A01 T02371034  RH  016%=      5-min Rain = 0
KEN1 250325Z 22002KT 24/M04 A2973 RMK A01 T02361036  RH  016%=      5-min Rain = 0
KEN1 250326Z 21002KT 24/M04 A2973 RMK A01 T02361037  RH  016%=      5-min Rain = 0
KEN1 250327Z 23002KT 24/M04 A2973 RMK A01 T02361036  RH  016%=      5-min Rain = 0
KEN1 250328Z 22002KT 24/M04 A2973 RMK A01 T02351037  RH  016%=      5-min Rain = 0
KEN1 250329Z 23002KT 24/M04 A2973 RMK A01 T02351036  RH  016%=      5-min Rain = 0
KEN1 250330Z 25004KT 23/M04 A2973 RMK A01 T02341036  RH  016%=      5-min Rain = 0
KEN1 250331Z 23003KT 23/M04 A2973 RMK A01 T02341037  RH  016%=      5-min Rain = 0
KEN1 250332Z 22003KT 23/M04 A2973 RMK A01 T02341037  RH  016%=      5-min Rain = 0
KEN1 250333Z 21002KT 24/M03 A2973 RMK A01 T02351034  RH  016%=      5-min Rain = 0
KEN1 250334Z 23003KT 24/M03 A2973 RMK A01 T02351033  RH  017%=      5-min Rain = 0
KEN1 250335Z 23002KT 23/M03 A2973 RMK A01 T02341034  RH  017%=      5-min Rain = 0
KEN1 250336Z 24003KT 23/M03 A2973 RMK A01 T02331033  RH  017%=      5-min Rain = 0
KEN1 250337Z 24003KT 23/M03 A2973 RMK A01 T02321034  RH  017%=      5-min Rain = 0
KEN1 250338Z 22004KT 23/M03 A2973 RMK A01 T02321034  RH  017%=      5-min Rain = 0
KEN1 250339Z 22004KT 23/M03 A2973 RMK A01 T02321033  RH  017%=      5-min Rain = 0
KEN1 250340Z 23003KT 23/M03 A2973 RMK A01 T02301026  RH  018%=      5-min Rain = 0
KEN1 250341Z 23003KT 23/M03 A2973 RMK A01 T02261026  RH  018%=      5-min Rain = 0
KEN1 250342Z 22003KT 22/M03 A2973 RMK A01 T02241027  RH  019%=      5-min Rain = 0
KEN1 250343Z 21003KT 22/M03 A2973 RMK A01 T02221027  RH  019%=      5-min Rain = 0
KEN1 250344Z 21004KT 22/M03 A2973 RMK A01 T02211028  RH  019%=      5-min Rain = 0
KEN1 250345Z 21004KT 22/M03 A2973 RMK A01 T02191027  RH  019%=      5-min Rain = 0
KEN1 250346Z 20004KT 22/M03 A2972 RMK A01 T02171026  RH  020%=      5-min Rain = 0
KEN1 250347Z 21004KT 22/M02 A2972 RMK A01 T02151022  RH  020%=      5-min Rain = 0
KEN1 250348Z 22004KT 21/M02 A2972 RMK A01 T02121020  RH  021%=      5-min Rain = 0
KEN1 250349Z 22004KT 21/M02 A2972 RMK A01 T02091021  RH  021%=      5-min Rain = 0
KEN1 250350Z 22005KT 21/M02 A2972 RMK A01 T02071024  RH  021%=      5-min Rain = 0
KEN1 250351Z 22005KT 21/M03 A2972 RMK A01 T02071025  RH  021%=      5-min Rain = 0
KEN1 250352Z 22005KT 21/M03 A2972 RMK A01 T02071025  RH  021%=      5-min Rain = 0
KEN1 250353Z 22004KT 21/M03 A2972 RMK A01 T02081027  RH  021%=      5-min Rain = 0
KEN1 250354Z 22005KT 21/M03 A2972 RMK A01 T02091029  RH  020%=      5-min Rain = 0
KEN1 250355Z 21006KT 21/M03 A2972 RMK A01 T02101028  RH  020%=      5-min Rain = 0
KEN1 250356Z 21005KT 21/M03 A2972 RMK A01 T02101026  RH  020%=      5-min Rain = 0
KEN1 250357Z 21004KT 21/M02 A2972 RMK A01 T02091024  RH  021%=      5-min Rain = 0
KEN1 250358Z 21003KT 21/M02 A2972 RMK A01 T02071024  RH  021%=      5-min Rain = 0
KEN1 250359Z 22003KT 21/M02 A2972 RMK A01 T02051024  RH  021%=      5-min Rain = 0
KEN1 250400Z 23003KT 20/M02 A2972 RMK A01 T02031022  RH  022%=      5-min Rain = 0
KEN1 250401Z 21003KT 20/M02 A2972 RMK A01 T02011022  RH  022%=      5-min Rain = 0
KEN1 250402Z 22003KT 20/M03 A2972 RMK A01 T02011026  RH  022%=      5-min Rain = 0
KEN1 250403Z 21004KT 20/M03 A2972 RMK A01 T02021027  RH  021%=      5-min Rain = 0
KEN1 250404Z 22004KT 20/M03 A2972 RMK A01 T02031025  RH  021%=      5-min Rain = 0
KEN1 250405Z 23003KT 20/M02 A2972 RMK A01 T02021022  RH  022%=      5-min Rain = 0
KEN1 250406Z 23003KT 20/M02 A2972 RMK A01 T02011024  RH  022%=      5-min Rain = 0
KEN1 250407Z 23004KT 20/M03 A2972 RMK A01 T02001026  RH  022%=      5-min Rain = 0
KEN1 250408Z 23004KT 20/M03 A2972 RMK A01 T02001025  RH  022%=      5-min Rain = 0
KEN1 250409Z 23003KT 20/M02 A2972 RMK A01 T02001024  RH  022%=      5-min Rain = 0
KEN1 250410Z 23003KT 20/M02 A2972 RMK A01 T02001023  RH  022%=      5-min Rain = 0
KEN1 250411Z 23003KT 20/M02 A2972 RMK A01 T02001023  RH  022%=      5-min Rain = 0
KEN1 250412Z 22003KT 20/M03 A2972 RMK A01 T02001026  RH  022%=      5-min Rain = 0
KEN1 250413Z 22003KT 20/M02 A2972 RMK A01 T02011024  RH  022%=      5-min Rain = 0
KEN1 250414Z 22003KT 20/M02 A2972 RMK A01 T02001024  RH  022%=      5-min Rain = 0
KEN1 250415Z 22003KT 20/M02 A2973 RMK A01 T02011023  RH  022%=      5-min Rain = 0
KEN1 250416Z 22002KT 20/M02 A2973 RMK A01 T02001023  RH  022%=      5-min Rain = 0
KEN1 250417Z 22003KT 20/M03 A2973 RMK A01 T01991026  RH  022%=      5-min Rain = 0
KEN1 250418Z 22003KT 20/M03 A2973 RMK A01 T01991028  RH  021%=      5-min Rain = 0
KEN1 250419Z 22003KT 20/M03 A2973 RMK A01 T02001028  RH  021%=      5-min Rain = 0
KEN1 250420Z 22003KT 20/M03 A2973 RMK A01 T02011027  RH  021%=      5-min Rain = 0
KEN1 250421Z 23003KT 20/M02 A2973 RMK A01 T02011016  RH  023%=      5-min Rain = 0
KEN1 250422Z 22002KT 20/M00 A2973 RMK A01 T01991004  RH  026%=      5-min Rain = 0
KEN1 250423Z 22003KT 20/M02 A2973 RMK A01 T01961017  RH  024%=      5-min Rain = 0
KEN1 250424Z 22002KT 20/M02 A2973 RMK A01 T01951018  RH  024%=      5-min Rain = 0
KEN1 250425Z 21002KT 19/M02 A2973 RMK A01 T01941021  RH  023%=      5-min Rain = 0
KEN1 250426Z 21002KT 19/M02 A2973 RMK A01 T01941023  RH  023%=      5-min Rain = 0
KEN1 250427Z 21002KT 19/M02 A2973 RMK A01 T01941024  RH  023%=      5-min Rain = 0
KEN1 250428Z 22001KT 19/M02 A2973 RMK A01 T01941020  RH  023%=      5-min Rain = 0
KEN1 250429Z 22000KT 19/M02 A2974 RMK A01 T01931020  RH  024%=      5-min Rain = 0
KEN1 250430Z 29000KT 19/M01 A2974 RMK A01 T01931014  RH  025%=      5-min Rain = 0
KEN1 250431Z 35003KT 19/M03 A2975 RMK A01 T01931025  RH  023%=      5-min Rain = 0
KEN1 250432Z 33008G14KT 19/M01 A2975 RMK A01 T01941011  RH  025%=      5-min Rain = 0
KEN1 250433Z 01013G22KT 19/M00 A2976 RMK A01 T01871001  RH  028%=      5-min Rain = 0
KEN1 250434Z 36015KT 18/00 A2977 RMK A01 T018300-0  RH  029%=      5-min Rain = 0
KEN1 250435Z 36017KT 19/01 A2977 RMK A01 T01890007  RH  029%=      5-min Rain = 0
KEN1 250436Z 36015KT 20/01 A2977 RMK A01 T01980008  RH  028%=      5-min Rain = 0
KEN1 250437Z 01013KT 20/00 A2977 RMK A01 T02040001  RH  026%=      5-min Rain = 0
KEN1 250438Z 02013G20KT 21/M00 A2977 RMK A01 T02051003  RH  025%=      5-min Rain = 0
KEN1 250439Z 02018KT 20/03 A2977 RMK A01 T02030026  RH  031%=      5-min Rain = 0
KEN1 250440Z 01015KT 20/05 A2977 RMK A01 T02030046  RH  036%=      5-min Rain = 0
KEN1 250441Z 01016KT 20/06 A2977 RMK A01 T02040059  RH  039%=      5-min Rain = 0
KEN1 250442Z 01014KT 21/07 A2977 RMK A01 T02050067  RH  041%=      5-min Rain = 0
KEN1 250443Z 01013KT 21/07 A2977 RMK A01 T02060067  RH  040%=      5-min Rain = 0
KEN1 250444Z 01013KT 21/07 A2978 RMK A01 T02070068  RH  040%=      5-min Rain = 0
KEN1 250445Z 02012KT 21/07 A2978 RMK A01 T02060066  RH  040%=      5-min Rain = 0
KEN1 250446Z 02015KT 21/08 A2977 RMK A01 T02050084  RH  046%=      5-min Rain = 0
KEN1 250447Z 02021G27KT 21/10 A2977 RMK A01 T02060101  RH  051%=      5-min Rain = 0
KEN1 250448Z 02024G29KT 21/11 A2977 RMK A01 T02090110  RH  053%=      5-min Rain = 0
KEN1 250449Z 00022KT 21/11 A2977 RMK A01 T02100111  RH  053%=      5-min Rain = 0
KEN1 250450Z 00021KT 21/11 A2978 RMK A01 T02100110  RH  053%=      5-min Rain = 0
KEN1 250451Z 01018KT 21/11 A2978 RMK A01 T02100111  RH  053%=      5-min Rain = 0
KEN1 250452Z 01019G25KT 21/11 A2978 RMK A01 T02080112  RH  054%=      5-min Rain = 0
KEN1 250453Z 01026G31KT 21/11 A2978 RMK A01 T02070113  RH  055%=      5-min Rain = 0
KEN1 250454Z 02028KT 21/11 A2978 RMK A01 T02060113  RH  055%=      5-min Rain = 0
KEN1 250455Z 01024G31KT 20/11 A2978 RMK A01 T02040113  RH  056%=      5-min Rain = 0
KEN1 250456Z 01023KT 20/11 A2978 RMK A01 T02030112  RH  056%=      5-min Rain = 0
KEN1 250457Z 01023G28KT 20/11 A2978 RMK A01 T02010112  RH  056%=      5-min Rain = 0
KEN1 250458Z 01022G27KT 20/11 A2978 RMK A01 T02000111  RH  057%=      5-min Rain = 0
KEN1 250459Z 01021KT 20/11 A2978 RMK A01 T01990111  RH  057%=      5-min Rain = 0

Page generated in 0.1182 seconds.